<?xml version="1.0" encoding="UTF-8" standalone="no" ?>
<gpx xmlns="http://www.topografix.com/GPX/1/1" xmlns:xsi="http://www.w3.org/2001/XMLSchema-instance" xsi:schemaLocation="http://www.topografix.com/GPX/1/1 http://www.topografix.com/GPX/1/1/gpx.xsd" version="1.1" creator="VisuGPX - https://www.visugpx.com">
  <metadata>
    <name> Lenquo De Capo</name>
  </metadata>
  <trk>
    <name><![CDATA[ Lenquo De Capo]]></name>
    <trkseg>
      <trkpt lat="42.78676" lon="0.15412">
        <ele>1837</ele>
        <time>2022-02-24T07:04:18Z</time>
      </trkpt>
      <trkpt lat="42.78674" lon="0.15415">
        <ele>1836</ele>
        <time>2022-02-24T07:04:36Z</time>
      </trkpt>
      <trkpt lat="42.78667" lon="0.15416">
        <ele>1836</ele>
        <time>2022-02-24T07:04:44Z</time>
      </trkpt>
      <trkpt lat="42.78666" lon="0.15409">
        <ele>1837</ele>
        <time>2022-02-24T07:04:48Z</time>
      </trkpt>
      <trkpt lat="42.78667" lon="0.15405">
        <ele>1837</ele>
        <time>2022-02-24T07:04:51Z</time>
      </trkpt>
      <trkpt lat="42.78673" lon="0.15391">
        <ele>1837</ele>
        <time>2022-02-24T07:05:04Z</time>
      </trkpt>
      <trkpt lat="42.78673" lon="0.15385">
        <ele>1837</ele>
        <time>2022-02-24T07:05:11Z</time>
      </trkpt>
      <trkpt lat="42.78673" lon="0.15376">
        <ele>1837</ele>
        <time>2022-02-24T07:05:16Z</time>
      </trkpt>
      <trkpt lat="42.78669" lon="0.15367">
        <ele>1837</ele>
        <time>2022-02-24T07:05:21Z</time>
      </trkpt>
      <trkpt lat="42.78663" lon="0.15348">
        <ele>1839</ele>
        <time>2022-02-24T07:05:35Z</time>
      </trkpt>
      <trkpt lat="42.78657" lon="0.15337">
        <ele>1839</ele>
        <time>2022-02-24T07:05:49Z</time>
      </trkpt>
      <trkpt lat="42.78656" lon="0.15335">
        <ele>1839</ele>
        <time>2022-02-24T07:06:06Z</time>
      </trkpt>
      <trkpt lat="42.78657" lon="0.15335">
        <ele>1838</ele>
        <time>2022-02-24T07:06:21Z</time>
      </trkpt>
      <trkpt lat="42.78654" lon="0.15338">
        <ele>1838</ele>
        <time>2022-02-24T07:06:41Z</time>
      </trkpt>
      <trkpt lat="42.78659" lon="0.15337">
        <ele>1838</ele>
        <time>2022-02-24T07:07:02Z</time>
      </trkpt>
      <trkpt lat="42.78657" lon="0.15334">
        <ele>1838</ele>
        <time>2022-02-24T07:07:19Z</time>
      </trkpt>
      <trkpt lat="42.78657" lon="0.15334">
        <ele>1839</ele>
        <time>2022-02-24T07:07:26Z</time>
      </trkpt>
      <trkpt lat="42.78653" lon="0.15327">
        <ele>1839</ele>
        <time>2022-02-24T07:07:33Z</time>
      </trkpt>
      <trkpt lat="42.7865" lon="0.15316">
        <ele>1837</ele>
        <time>2022-02-24T07:07:38Z</time>
      </trkpt>
      <trkpt lat="42.78648" lon="0.15306">
        <ele>1837</ele>
        <time>2022-02-24T07:07:44Z</time>
      </trkpt>
      <trkpt lat="42.78649" lon="0.15278">
        <ele>1836</ele>
        <time>2022-02-24T07:07:57Z</time>
      </trkpt>
      <trkpt lat="42.78648" lon="0.15265">
        <ele>1834</ele>
        <time>2022-02-24T07:08:02Z</time>
      </trkpt>
      <trkpt lat="42.78647" lon="0.15238">
        <ele>1831</ele>
        <time>2022-02-24T07:08:12Z</time>
      </trkpt>
      <trkpt lat="42.78647" lon="0.15203">
        <ele>1829</ele>
        <time>2022-02-24T07:08:25Z</time>
      </trkpt>
      <trkpt lat="42.78646" lon="0.15172">
        <ele>1827</ele>
        <time>2022-02-24T07:08:38Z</time>
      </trkpt>
      <trkpt lat="42.78646" lon="0.15148">
        <ele>1825</ele>
        <time>2022-02-24T07:08:50Z</time>
      </trkpt>
      <trkpt lat="42.78645" lon="0.15126">
        <ele>1824</ele>
        <time>2022-02-24T07:09:03Z</time>
      </trkpt>
      <trkpt lat="42.78644" lon="0.15098">
        <ele>1822</ele>
        <time>2022-02-24T07:09:18Z</time>
      </trkpt>
      <trkpt lat="42.78646" lon="0.15085">
        <ele>1823</ele>
        <time>2022-02-24T07:09:24Z</time>
      </trkpt>
      <trkpt lat="42.7865" lon="0.15075">
        <ele>1823</ele>
        <time>2022-02-24T07:09:30Z</time>
      </trkpt>
      <trkpt lat="42.78652" lon="0.15053">
        <ele>1823</ele>
        <time>2022-02-24T07:09:44Z</time>
      </trkpt>
      <trkpt lat="42.78651" lon="0.15049">
        <ele>1823</ele>
        <time>2022-02-24T07:09:47Z</time>
      </trkpt>
      <trkpt lat="42.78639" lon="0.15033">
        <ele>1824</ele>
        <time>2022-02-24T07:10:03Z</time>
      </trkpt>
      <trkpt lat="42.78635" lon="0.1503">
        <ele>1824</ele>
        <time>2022-02-24T07:10:08Z</time>
      </trkpt>
      <trkpt lat="42.78634" lon="0.15027">
        <ele>1824</ele>
        <time>2022-02-24T07:10:11Z</time>
      </trkpt>
      <trkpt lat="42.7863" lon="0.15025">
        <ele>1825</ele>
        <time>2022-02-24T07:10:15Z</time>
      </trkpt>
      <trkpt lat="42.78615" lon="0.1501">
        <ele>1825</ele>
        <time>2022-02-24T07:10:31Z</time>
      </trkpt>
      <trkpt lat="42.78614" lon="0.1501">
        <ele>1825</ele>
        <time>2022-02-24T07:10:32Z</time>
      </trkpt>
      <trkpt lat="42.78605" lon="0.1499">
        <ele>1826</ele>
        <time>2022-02-24T07:10:46Z</time>
      </trkpt>
      <trkpt lat="42.78602" lon="0.14975">
        <ele>1826</ele>
        <time>2022-02-24T07:10:59Z</time>
      </trkpt>
      <trkpt lat="42.786" lon="0.14957">
        <ele>1828</ele>
        <time>2022-02-24T07:11:12Z</time>
      </trkpt>
      <trkpt lat="42.78597" lon="0.14936">
        <ele>1828</ele>
        <time>2022-02-24T07:11:25Z</time>
      </trkpt>
      <trkpt lat="42.78593" lon="0.14919">
        <ele>1829</ele>
        <time>2022-02-24T07:11:38Z</time>
      </trkpt>
      <trkpt lat="42.78587" lon="0.14892">
        <ele>1830</ele>
        <time>2022-02-24T07:11:55Z</time>
      </trkpt>
      <trkpt lat="42.78581" lon="0.14875">
        <ele>1831</ele>
        <time>2022-02-24T07:12:10Z</time>
      </trkpt>
      <trkpt lat="42.78581" lon="0.14869">
        <ele>1831</ele>
        <time>2022-02-24T07:12:13Z</time>
      </trkpt>
      <trkpt lat="42.7858" lon="0.14864">
        <ele>1831</ele>
        <time>2022-02-24T07:12:16Z</time>
      </trkpt>
      <trkpt lat="42.78576" lon="0.14842">
        <ele>1832</ele>
        <time>2022-02-24T07:12:30Z</time>
      </trkpt>
      <trkpt lat="42.7857" lon="0.14823">
        <ele>1833</ele>
        <time>2022-02-24T07:12:45Z</time>
      </trkpt>
      <trkpt lat="42.78563" lon="0.14802">
        <ele>1835</ele>
        <time>2022-02-24T07:13:00Z</time>
      </trkpt>
      <trkpt lat="42.78557" lon="0.14786">
        <ele>1836</ele>
        <time>2022-02-24T07:13:14Z</time>
      </trkpt>
      <trkpt lat="42.7855" lon="0.14768">
        <ele>1838</ele>
        <time>2022-02-24T07:13:29Z</time>
      </trkpt>
      <trkpt lat="42.78546" lon="0.14755">
        <ele>1839</ele>
        <time>2022-02-24T07:13:38Z</time>
      </trkpt>
      <trkpt lat="42.78543" lon="0.14737">
        <ele>1840</ele>
        <time>2022-02-24T07:13:52Z</time>
      </trkpt>
      <trkpt lat="42.78538" lon="0.14716">
        <ele>1842</ele>
        <time>2022-02-24T07:14:08Z</time>
      </trkpt>
      <trkpt lat="42.78538" lon="0.14715">
        <ele>1841</ele>
        <time>2022-02-24T07:14:09Z</time>
      </trkpt>
      <trkpt lat="42.78534" lon="0.14689">
        <ele>1842</ele>
        <time>2022-02-24T07:14:24Z</time>
      </trkpt>
      <trkpt lat="42.78529" lon="0.14671">
        <ele>1844</ele>
        <time>2022-02-24T07:14:39Z</time>
      </trkpt>
      <trkpt lat="42.78528" lon="0.1467">
        <ele>1843</ele>
        <time>2022-02-24T07:14:40Z</time>
      </trkpt>
      <trkpt lat="42.78525" lon="0.14661">
        <ele>1843</ele>
        <time>2022-02-24T07:14:46Z</time>
      </trkpt>
      <trkpt lat="42.78522" lon="0.14639">
        <ele>1844</ele>
        <time>2022-02-24T07:14:59Z</time>
      </trkpt>
      <trkpt lat="42.78521" lon="0.14632">
        <ele>1844</ele>
        <time>2022-02-24T07:15:03Z</time>
      </trkpt>
      <trkpt lat="42.78521" lon="0.14627">
        <ele>1845</ele>
        <time>2022-02-24T07:15:06Z</time>
      </trkpt>
      <trkpt lat="42.78524" lon="0.14609">
        <ele>1844</ele>
        <time>2022-02-24T07:15:19Z</time>
      </trkpt>
      <trkpt lat="42.78519" lon="0.14596">
        <ele>1844</ele>
        <time>2022-02-24T07:15:30Z</time>
      </trkpt>
      <trkpt lat="42.78513" lon="0.14575">
        <ele>1844</ele>
        <time>2022-02-24T07:15:44Z</time>
      </trkpt>
      <trkpt lat="42.78513" lon="0.14573">
        <ele>1844</ele>
        <time>2022-02-24T07:15:46Z</time>
      </trkpt>
      <trkpt lat="42.7851" lon="0.14557">
        <ele>1844</ele>
        <time>2022-02-24T07:15:59Z</time>
      </trkpt>
      <trkpt lat="42.78508" lon="0.14537">
        <ele>1846</ele>
        <time>2022-02-24T07:16:13Z</time>
      </trkpt>
      <trkpt lat="42.78506" lon="0.14518">
        <ele>1845</ele>
        <time>2022-02-24T07:16:25Z</time>
      </trkpt>
      <trkpt lat="42.78505" lon="0.14516">
        <ele>1845</ele>
        <time>2022-02-24T07:16:27Z</time>
      </trkpt>
      <trkpt lat="42.78502" lon="0.1449">
        <ele>1843</ele>
        <time>2022-02-24T07:16:42Z</time>
      </trkpt>
      <trkpt lat="42.78501" lon="0.14487">
        <ele>1844</ele>
        <time>2022-02-24T07:16:44Z</time>
      </trkpt>
      <trkpt lat="42.78499" lon="0.14463">
        <ele>1843</ele>
        <time>2022-02-24T07:17:00Z</time>
      </trkpt>
      <trkpt lat="42.78498" lon="0.1444">
        <ele>1843</ele>
        <time>2022-02-24T07:17:15Z</time>
      </trkpt>
      <trkpt lat="42.78497" lon="0.14435">
        <ele>1843</ele>
        <time>2022-02-24T07:17:19Z</time>
      </trkpt>
      <trkpt lat="42.78494" lon="0.14432">
        <ele>1843</ele>
        <time>2022-02-24T07:17:23Z</time>
      </trkpt>
      <trkpt lat="42.7849" lon="0.14428">
        <ele>1845</ele>
        <time>2022-02-24T07:17:29Z</time>
      </trkpt>
      <trkpt lat="42.78482" lon="0.14413">
        <ele>1846</ele>
        <time>2022-02-24T07:17:42Z</time>
      </trkpt>
      <trkpt lat="42.78478" lon="0.14407">
        <ele>1847</ele>
        <time>2022-02-24T07:17:48Z</time>
      </trkpt>
      <trkpt lat="42.78474" lon="0.144">
        <ele>1847</ele>
        <time>2022-02-24T07:17:56Z</time>
      </trkpt>
      <trkpt lat="42.78471" lon="0.14387">
        <ele>1848</ele>
        <time>2022-02-24T07:18:06Z</time>
      </trkpt>
      <trkpt lat="42.78461" lon="0.14377">
        <ele>1849</ele>
        <time>2022-02-24T07:18:20Z</time>
      </trkpt>
      <trkpt lat="42.78456" lon="0.14362">
        <ele>1852</ele>
        <time>2022-02-24T07:18:32Z</time>
      </trkpt>
      <trkpt lat="42.78455" lon="0.14356">
        <ele>1852</ele>
        <time>2022-02-24T07:18:37Z</time>
      </trkpt>
      <trkpt lat="42.78453" lon="0.14336">
        <ele>1853</ele>
        <time>2022-02-24T07:18:51Z</time>
      </trkpt>
      <trkpt lat="42.78455" lon="0.14322">
        <ele>1855</ele>
        <time>2022-02-24T07:19:03Z</time>
      </trkpt>
      <trkpt lat="42.78458" lon="0.143">
        <ele>1857</ele>
        <time>2022-02-24T07:19:18Z</time>
      </trkpt>
      <trkpt lat="42.78459" lon="0.14296">
        <ele>1857</ele>
        <time>2022-02-24T07:19:21Z</time>
      </trkpt>
      <trkpt lat="42.78456" lon="0.14285">
        <ele>1859</ele>
        <time>2022-02-24T07:19:33Z</time>
      </trkpt>
      <trkpt lat="42.78442" lon="0.14273">
        <ele>1860</ele>
        <time>2022-02-24T07:19:51Z</time>
      </trkpt>
      <trkpt lat="42.78431" lon="0.14261">
        <ele>1863</ele>
        <time>2022-02-24T07:20:07Z</time>
      </trkpt>
      <trkpt lat="42.7843" lon="0.14259">
        <ele>1863</ele>
        <time>2022-02-24T07:20:09Z</time>
      </trkpt>
      <trkpt lat="42.78424" lon="0.14245">
        <ele>1865</ele>
        <time>2022-02-24T07:20:24Z</time>
      </trkpt>
      <trkpt lat="42.78425" lon="0.14226">
        <ele>1866</ele>
        <time>2022-02-24T07:20:38Z</time>
      </trkpt>
      <trkpt lat="42.78422" lon="0.14216">
        <ele>1869</ele>
        <time>2022-02-24T07:20:50Z</time>
      </trkpt>
      <trkpt lat="42.78418" lon="0.14207">
        <ele>1871</ele>
        <time>2022-02-24T07:21:04Z</time>
      </trkpt>
      <trkpt lat="42.78417" lon="0.14203">
        <ele>1872</ele>
        <time>2022-02-24T07:21:08Z</time>
      </trkpt>
      <trkpt lat="42.78414" lon="0.14199">
        <ele>1873</ele>
        <time>2022-02-24T07:21:14Z</time>
      </trkpt>
      <trkpt lat="42.78413" lon="0.14198">
        <ele>1873</ele>
        <time>2022-02-24T07:21:15Z</time>
      </trkpt>
      <trkpt lat="42.78404" lon="0.14189">
        <ele>1875</ele>
        <time>2022-02-24T07:21:30Z</time>
      </trkpt>
      <trkpt lat="42.78399" lon="0.14173">
        <ele>1877</ele>
        <time>2022-02-24T07:21:44Z</time>
      </trkpt>
      <trkpt lat="42.78394" lon="0.1416">
        <ele>1879</ele>
        <time>2022-02-24T07:21:59Z</time>
      </trkpt>
      <trkpt lat="42.78394" lon="0.14161">
        <ele>1880</ele>
        <time>2022-02-24T07:22:14Z</time>
      </trkpt>
      <trkpt lat="42.7839" lon="0.14155">
        <ele>1880</ele>
        <time>2022-02-24T07:22:31Z</time>
      </trkpt>
      <trkpt lat="42.78387" lon="0.14139">
        <ele>1883</ele>
        <time>2022-02-24T07:22:45Z</time>
      </trkpt>
      <trkpt lat="42.78386" lon="0.14136">
        <ele>1883</ele>
        <time>2022-02-24T07:22:50Z</time>
      </trkpt>
      <trkpt lat="42.7838" lon="0.14131">
        <ele>1884</ele>
        <time>2022-02-24T07:23:00Z</time>
      </trkpt>
      <trkpt lat="42.7838" lon="0.1411">
        <ele>1887</ele>
        <time>2022-02-24T07:23:15Z</time>
      </trkpt>
      <trkpt lat="42.78377" lon="0.14105">
        <ele>1887</ele>
        <time>2022-02-24T07:23:20Z</time>
      </trkpt>
      <trkpt lat="42.78378" lon="0.14083">
        <ele>1889</ele>
        <time>2022-02-24T07:23:35Z</time>
      </trkpt>
      <trkpt lat="42.78378" lon="0.14077">
        <ele>1889</ele>
        <time>2022-02-24T07:23:41Z</time>
      </trkpt>
      <trkpt lat="42.78377" lon="0.14061">
        <ele>1891</ele>
        <time>2022-02-24T07:23:54Z</time>
      </trkpt>
      <trkpt lat="42.78379" lon="0.14046">
        <ele>1893</ele>
        <time>2022-02-24T07:24:06Z</time>
      </trkpt>
      <trkpt lat="42.78377" lon="0.14031">
        <ele>1894</ele>
        <time>2022-02-24T07:24:22Z</time>
      </trkpt>
      <trkpt lat="42.78377" lon="0.14022">
        <ele>1896</ele>
        <time>2022-02-24T07:24:35Z</time>
      </trkpt>
      <trkpt lat="42.78375" lon="0.14017">
        <ele>1897</ele>
        <time>2022-02-24T07:24:49Z</time>
      </trkpt>
      <trkpt lat="42.78372" lon="0.14003">
        <ele>1900</ele>
        <time>2022-02-24T07:25:03Z</time>
      </trkpt>
      <trkpt lat="42.78372" lon="0.13985">
        <ele>1902</ele>
        <time>2022-02-24T07:25:16Z</time>
      </trkpt>
      <trkpt lat="42.78369" lon="0.13979">
        <ele>1903</ele>
        <time>2022-02-24T07:25:26Z</time>
      </trkpt>
      <trkpt lat="42.78367" lon="0.13974">
        <ele>1903</ele>
        <time>2022-02-24T07:25:35Z</time>
      </trkpt>
      <trkpt lat="42.78366" lon="0.13973">
        <ele>1904</ele>
        <time>2022-02-24T07:25:37Z</time>
      </trkpt>
      <trkpt lat="42.78363" lon="0.13955">
        <ele>1906</ele>
        <time>2022-02-24T07:25:54Z</time>
      </trkpt>
      <trkpt lat="42.78364" lon="0.13942">
        <ele>1907</ele>
        <time>2022-02-24T07:26:08Z</time>
      </trkpt>
      <trkpt lat="42.78368" lon="0.13918">
        <ele>1908</ele>
        <time>2022-02-24T07:26:23Z</time>
      </trkpt>
      <trkpt lat="42.78371" lon="0.13904">
        <ele>1910</ele>
        <time>2022-02-24T07:26:35Z</time>
      </trkpt>
      <trkpt lat="42.78371" lon="0.13898">
        <ele>1911</ele>
        <time>2022-02-24T07:26:41Z</time>
      </trkpt>
      <trkpt lat="42.78375" lon="0.13879">
        <ele>1913</ele>
        <time>2022-02-24T07:26:56Z</time>
      </trkpt>
      <trkpt lat="42.78377" lon="0.13862">
        <ele>1914</ele>
        <time>2022-02-24T07:27:12Z</time>
      </trkpt>
      <trkpt lat="42.78371" lon="0.13846">
        <ele>1915</ele>
        <time>2022-02-24T07:27:27Z</time>
      </trkpt>
      <trkpt lat="42.78371" lon="0.1384">
        <ele>1916</ele>
        <time>2022-02-24T07:27:34Z</time>
      </trkpt>
      <trkpt lat="42.78366" lon="0.13821">
        <ele>1917</ele>
        <time>2022-02-24T07:27:50Z</time>
      </trkpt>
      <trkpt lat="42.78367" lon="0.13805">
        <ele>1919</ele>
        <time>2022-02-24T07:28:02Z</time>
      </trkpt>
      <trkpt lat="42.78363" lon="0.13792">
        <ele>1920</ele>
        <time>2022-02-24T07:28:16Z</time>
      </trkpt>
      <trkpt lat="42.78356" lon="0.13772">
        <ele>1922</ele>
        <time>2022-02-24T07:28:32Z</time>
      </trkpt>
      <trkpt lat="42.78353" lon="0.13752">
        <ele>1924</ele>
        <time>2022-02-24T07:28:50Z</time>
      </trkpt>
      <trkpt lat="42.78353" lon="0.13746">
        <ele>1925</ele>
        <time>2022-02-24T07:28:55Z</time>
      </trkpt>
      <trkpt lat="42.78351" lon="0.13741">
        <ele>1925</ele>
        <time>2022-02-24T07:28:59Z</time>
      </trkpt>
      <trkpt lat="42.78347" lon="0.13727">
        <ele>1927</ele>
        <time>2022-02-24T07:29:12Z</time>
      </trkpt>
      <trkpt lat="42.78351" lon="0.13725">
        <ele>1928</ele>
        <time>2022-02-24T07:29:26Z</time>
      </trkpt>
      <trkpt lat="42.78343" lon="0.13709">
        <ele>1930</ele>
        <time>2022-02-24T07:29:40Z</time>
      </trkpt>
      <trkpt lat="42.78336" lon="0.13694">
        <ele>1932</ele>
        <time>2022-02-24T07:29:55Z</time>
      </trkpt>
      <trkpt lat="42.78331" lon="0.13681">
        <ele>1934</ele>
        <time>2022-02-24T07:30:11Z</time>
      </trkpt>
      <trkpt lat="42.78326" lon="0.13666">
        <ele>1936</ele>
        <time>2022-02-24T07:30:27Z</time>
      </trkpt>
      <trkpt lat="42.78324" lon="0.13653">
        <ele>1939</ele>
        <time>2022-02-24T07:30:43Z</time>
      </trkpt>
      <trkpt lat="42.78323" lon="0.13653">
        <ele>1939</ele>
        <time>2022-02-24T07:31:03Z</time>
      </trkpt>
      <trkpt lat="42.78321" lon="0.13654">
        <ele>1939</ele>
        <time>2022-02-24T07:31:29Z</time>
      </trkpt>
      <trkpt lat="42.78324" lon="0.13656">
        <ele>1940</ele>
        <time>2022-02-24T07:31:46Z</time>
      </trkpt>
      <trkpt lat="42.78323" lon="0.13651">
        <ele>1940</ele>
        <time>2022-02-24T07:32:02Z</time>
      </trkpt>
      <trkpt lat="42.78324" lon="0.1364">
        <ele>1942</ele>
        <time>2022-02-24T07:32:16Z</time>
      </trkpt>
      <trkpt lat="42.78322" lon="0.13626">
        <ele>1945</ele>
        <time>2022-02-24T07:32:32Z</time>
      </trkpt>
      <trkpt lat="42.78317" lon="0.13614">
        <ele>1947</ele>
        <time>2022-02-24T07:32:44Z</time>
      </trkpt>
      <trkpt lat="42.78315" lon="0.13601">
        <ele>1949</ele>
        <time>2022-02-24T07:32:59Z</time>
      </trkpt>
      <trkpt lat="42.78313" lon="0.13584">
        <ele>1952</ele>
        <time>2022-02-24T07:33:14Z</time>
      </trkpt>
      <trkpt lat="42.78311" lon="0.13572">
        <ele>1953</ele>
        <time>2022-02-24T07:33:26Z</time>
      </trkpt>
      <trkpt lat="42.7831" lon="0.13559">
        <ele>1956</ele>
        <time>2022-02-24T07:33:41Z</time>
      </trkpt>
      <trkpt lat="42.78309" lon="0.13546">
        <ele>1958</ele>
        <time>2022-02-24T07:33:56Z</time>
      </trkpt>
      <trkpt lat="42.78316" lon="0.13537">
        <ele>1961</ele>
        <time>2022-02-24T07:34:09Z</time>
      </trkpt>
      <trkpt lat="42.78317" lon="0.13528">
        <ele>1965</ele>
        <time>2022-02-24T07:34:23Z</time>
      </trkpt>
      <trkpt lat="42.78312" lon="0.13514">
        <ele>1967</ele>
        <time>2022-02-24T07:34:39Z</time>
      </trkpt>
      <trkpt lat="42.78311" lon="0.13512">
        <ele>1966</ele>
        <time>2022-02-24T07:34:42Z</time>
      </trkpt>
      <trkpt lat="42.78307" lon="0.135">
        <ele>1969</ele>
        <time>2022-02-24T07:34:56Z</time>
      </trkpt>
      <trkpt lat="42.78306" lon="0.13489">
        <ele>1971</ele>
        <time>2022-02-24T07:35:08Z</time>
      </trkpt>
      <trkpt lat="42.78306" lon="0.1348">
        <ele>1973</ele>
        <time>2022-02-24T07:35:21Z</time>
      </trkpt>
      <trkpt lat="42.783" lon="0.13473">
        <ele>1976</ele>
        <time>2022-02-24T07:35:35Z</time>
      </trkpt>
      <trkpt lat="42.7829" lon="0.13466">
        <ele>1977</ele>
        <time>2022-02-24T07:35:48Z</time>
      </trkpt>
      <trkpt lat="42.78287" lon="0.13457">
        <ele>1978</ele>
        <time>2022-02-24T07:36:01Z</time>
      </trkpt>
      <trkpt lat="42.78287" lon="0.1346">
        <ele>1978</ele>
        <time>2022-02-24T07:36:09Z</time>
      </trkpt>
      <trkpt lat="42.78286" lon="0.13456">
        <ele>1976</ele>
        <time>2022-02-24T07:36:21Z</time>
      </trkpt>
      <trkpt lat="42.78287" lon="0.13456">
        <ele>1976</ele>
        <time>2022-02-24T07:36:49Z</time>
      </trkpt>
      <trkpt lat="42.78287" lon="0.13456">
        <ele>1977</ele>
        <time>2022-02-24T07:36:57Z</time>
      </trkpt>
      <trkpt lat="42.78286" lon="0.13456">
        <ele>1977</ele>
        <time>2022-02-24T07:37:07Z</time>
      </trkpt>
      <trkpt lat="42.78285" lon="0.13455">
        <ele>1977</ele>
        <time>2022-02-24T07:37:30Z</time>
      </trkpt>
      <trkpt lat="42.78286" lon="0.13457">
        <ele>1977</ele>
        <time>2022-02-24T07:37:48Z</time>
      </trkpt>
      <trkpt lat="42.78285" lon="0.1346">
        <ele>1978</ele>
        <time>2022-02-24T07:38:03Z</time>
      </trkpt>
      <trkpt lat="42.78286" lon="0.13456">
        <ele>1978</ele>
        <time>2022-02-24T07:38:23Z</time>
      </trkpt>
      <trkpt lat="42.78285" lon="0.13455">
        <ele>1978</ele>
        <time>2022-02-24T07:38:41Z</time>
      </trkpt>
      <trkpt lat="42.78288" lon="0.13454">
        <ele>1978</ele>
        <time>2022-02-24T07:38:53Z</time>
      </trkpt>
      <trkpt lat="42.78287" lon="0.13453">
        <ele>1978</ele>
        <time>2022-02-24T07:39:12Z</time>
      </trkpt>
      <trkpt lat="42.78287" lon="0.13451">
        <ele>1978</ele>
        <time>2022-02-24T07:39:46Z</time>
      </trkpt>
      <trkpt lat="42.78287" lon="0.13456">
        <ele>1978</ele>
        <time>2022-02-24T07:40:13Z</time>
      </trkpt>
      <trkpt lat="42.78287" lon="0.13455">
        <ele>1978</ele>
        <time>2022-02-24T07:40:34Z</time>
      </trkpt>
      <trkpt lat="42.78285" lon="0.13451">
        <ele>1978</ele>
        <time>2022-02-24T07:40:57Z</time>
      </trkpt>
      <trkpt lat="42.78284" lon="0.13446">
        <ele>1980</ele>
        <time>2022-02-24T07:41:10Z</time>
      </trkpt>
      <trkpt lat="42.78281" lon="0.1344">
        <ele>1981</ele>
        <time>2022-02-24T07:41:22Z</time>
      </trkpt>
      <trkpt lat="42.78279" lon="0.13431">
        <ele>1984</ele>
        <time>2022-02-24T07:41:36Z</time>
      </trkpt>
      <trkpt lat="42.78286" lon="0.13424">
        <ele>1986</ele>
        <time>2022-02-24T07:41:47Z</time>
      </trkpt>
      <trkpt lat="42.78296" lon="0.1342">
        <ele>1988</ele>
        <time>2022-02-24T07:42:01Z</time>
      </trkpt>
      <trkpt lat="42.78302" lon="0.13416">
        <ele>1991</ele>
        <time>2022-02-24T07:42:14Z</time>
      </trkpt>
      <trkpt lat="42.78295" lon="0.13409">
        <ele>1993</ele>
        <time>2022-02-24T07:42:29Z</time>
      </trkpt>
      <trkpt lat="42.78293" lon="0.13399">
        <ele>1996</ele>
        <time>2022-02-24T07:42:46Z</time>
      </trkpt>
      <trkpt lat="42.78298" lon="0.13393">
        <ele>1997</ele>
        <time>2022-02-24T07:42:57Z</time>
      </trkpt>
      <trkpt lat="42.78307" lon="0.13387">
        <ele>1999</ele>
        <time>2022-02-24T07:43:12Z</time>
      </trkpt>
      <trkpt lat="42.78309" lon="0.13384">
        <ele>2001</ele>
        <time>2022-02-24T07:43:22Z</time>
      </trkpt>
      <trkpt lat="42.783" lon="0.13376">
        <ele>2004</ele>
        <time>2022-02-24T07:43:38Z</time>
      </trkpt>
      <trkpt lat="42.78287" lon="0.13369">
        <ele>2005</ele>
        <time>2022-02-24T07:43:56Z</time>
      </trkpt>
      <trkpt lat="42.78291" lon="0.13357">
        <ele>2008</ele>
        <time>2022-02-24T07:44:09Z</time>
      </trkpt>
      <trkpt lat="42.78298" lon="0.13348">
        <ele>2009</ele>
        <time>2022-02-24T07:44:25Z</time>
      </trkpt>
      <trkpt lat="42.78305" lon="0.13341">
        <ele>2012</ele>
        <time>2022-02-24T07:44:39Z</time>
      </trkpt>
      <trkpt lat="42.7831" lon="0.13333">
        <ele>2015</ele>
        <time>2022-02-24T07:44:50Z</time>
      </trkpt>
      <trkpt lat="42.78302" lon="0.13333">
        <ele>2017</ele>
        <time>2022-02-24T07:45:04Z</time>
      </trkpt>
      <trkpt lat="42.78292" lon="0.13327">
        <ele>2019</ele>
        <time>2022-02-24T07:45:19Z</time>
      </trkpt>
      <trkpt lat="42.78289" lon="0.13316">
        <ele>2022</ele>
        <time>2022-02-24T07:45:36Z</time>
      </trkpt>
      <trkpt lat="42.78296" lon="0.13312">
        <ele>2024</ele>
        <time>2022-02-24T07:45:50Z</time>
      </trkpt>
      <trkpt lat="42.78301" lon="0.13305">
        <ele>2026</ele>
        <time>2022-02-24T07:46:03Z</time>
      </trkpt>
      <trkpt lat="42.78294" lon="0.13304">
        <ele>2029</ele>
        <time>2022-02-24T07:46:18Z</time>
      </trkpt>
      <trkpt lat="42.78286" lon="0.13299">
        <ele>2031</ele>
        <time>2022-02-24T07:46:33Z</time>
      </trkpt>
      <trkpt lat="42.78279" lon="0.13296">
        <ele>2033</ele>
        <time>2022-02-24T07:46:43Z</time>
      </trkpt>
      <trkpt lat="42.78268" lon="0.13292">
        <ele>2036</ele>
        <time>2022-02-24T07:47:01Z</time>
      </trkpt>
      <trkpt lat="42.78261" lon="0.13287">
        <ele>2039</ele>
        <time>2022-02-24T07:47:15Z</time>
      </trkpt>
      <trkpt lat="42.78256" lon="0.13279">
        <ele>2042</ele>
        <time>2022-02-24T07:47:33Z</time>
      </trkpt>
      <trkpt lat="42.78253" lon="0.13271">
        <ele>2045</ele>
        <time>2022-02-24T07:47:51Z</time>
      </trkpt>
      <trkpt lat="42.78246" lon="0.13259">
        <ele>2049</ele>
        <time>2022-02-24T07:48:11Z</time>
      </trkpt>
      <trkpt lat="42.7824" lon="0.13251">
        <ele>2051</ele>
        <time>2022-02-24T07:48:26Z</time>
      </trkpt>
      <trkpt lat="42.78232" lon="0.13245">
        <ele>2054</ele>
        <time>2022-02-24T07:48:43Z</time>
      </trkpt>
      <trkpt lat="42.78224" lon="0.13238">
        <ele>2057</ele>
        <time>2022-02-24T07:49:02Z</time>
      </trkpt>
      <trkpt lat="42.7822" lon="0.13228">
        <ele>2060</ele>
        <time>2022-02-24T07:49:18Z</time>
      </trkpt>
      <trkpt lat="42.78214" lon="0.13219">
        <ele>2061</ele>
        <time>2022-02-24T07:49:32Z</time>
      </trkpt>
      <trkpt lat="42.78208" lon="0.13212">
        <ele>2065</ele>
        <time>2022-02-24T07:49:51Z</time>
      </trkpt>
      <trkpt lat="42.78202" lon="0.13204">
        <ele>2067</ele>
        <time>2022-02-24T07:50:05Z</time>
      </trkpt>
      <trkpt lat="42.78193" lon="0.13197">
        <ele>2070</ele>
        <time>2022-02-24T07:50:24Z</time>
      </trkpt>
      <trkpt lat="42.78184" lon="0.13188">
        <ele>2073</ele>
        <time>2022-02-24T07:50:42Z</time>
      </trkpt>
      <trkpt lat="42.78175" lon="0.13185">
        <ele>2076</ele>
        <time>2022-02-24T07:50:58Z</time>
      </trkpt>
      <trkpt lat="42.78167" lon="0.13181">
        <ele>2078</ele>
        <time>2022-02-24T07:51:11Z</time>
      </trkpt>
      <trkpt lat="42.78161" lon="0.13172">
        <ele>2080</ele>
        <time>2022-02-24T07:51:25Z</time>
      </trkpt>
      <trkpt lat="42.78164" lon="0.13162">
        <ele>2082</ele>
        <time>2022-02-24T07:51:37Z</time>
      </trkpt>
      <trkpt lat="42.78166" lon="0.13151">
        <ele>2084</ele>
        <time>2022-02-24T07:51:51Z</time>
      </trkpt>
      <trkpt lat="42.78168" lon="0.13146">
        <ele>2085</ele>
        <time>2022-02-24T07:51:58Z</time>
      </trkpt>
      <trkpt lat="42.78172" lon="0.13134">
        <ele>2087</ele>
        <time>2022-02-24T07:52:13Z</time>
      </trkpt>
      <trkpt lat="42.78173" lon="0.13126">
        <ele>2089</ele>
        <time>2022-02-24T07:52:26Z</time>
      </trkpt>
      <trkpt lat="42.78165" lon="0.13122">
        <ele>2092</ele>
        <time>2022-02-24T07:52:42Z</time>
      </trkpt>
      <trkpt lat="42.78161" lon="0.13111">
        <ele>2095</ele>
        <time>2022-02-24T07:52:59Z</time>
      </trkpt>
      <trkpt lat="42.78157" lon="0.13101">
        <ele>2097</ele>
        <time>2022-02-24T07:53:15Z</time>
      </trkpt>
      <trkpt lat="42.78161" lon="0.13083">
        <ele>2100</ele>
        <time>2022-02-24T07:53:32Z</time>
      </trkpt>
      <trkpt lat="42.78166" lon="0.13075">
        <ele>2103</ele>
        <time>2022-02-24T07:53:46Z</time>
      </trkpt>
      <trkpt lat="42.78167" lon="0.13072">
        <ele>2103</ele>
        <time>2022-02-24T07:54:02Z</time>
      </trkpt>
      <trkpt lat="42.7817" lon="0.13067">
        <ele>2105</ele>
        <time>2022-02-24T07:54:14Z</time>
      </trkpt>
      <trkpt lat="42.78175" lon="0.1306">
        <ele>2108</ele>
        <time>2022-02-24T07:54:33Z</time>
      </trkpt>
      <trkpt lat="42.78181" lon="0.13055">
        <ele>2112</ele>
        <time>2022-02-24T07:54:46Z</time>
      </trkpt>
      <trkpt lat="42.78188" lon="0.13048">
        <ele>2115</ele>
        <time>2022-02-24T07:55:01Z</time>
      </trkpt>
      <trkpt lat="42.78195" lon="0.1304">
        <ele>2116</ele>
        <time>2022-02-24T07:55:15Z</time>
      </trkpt>
      <trkpt lat="42.78192" lon="0.13034">
        <ele>2119</ele>
        <time>2022-02-24T07:55:28Z</time>
      </trkpt>
      <trkpt lat="42.78182" lon="0.13022">
        <ele>2121</ele>
        <time>2022-02-24T07:55:47Z</time>
      </trkpt>
      <trkpt lat="42.78174" lon="0.13012">
        <ele>2124</ele>
        <time>2022-02-24T07:56:06Z</time>
      </trkpt>
      <trkpt lat="42.78169" lon="0.13004">
        <ele>2127</ele>
        <time>2022-02-24T07:56:21Z</time>
      </trkpt>
      <trkpt lat="42.78159" lon="0.12996">
        <ele>2128</ele>
        <time>2022-02-24T07:56:37Z</time>
      </trkpt>
      <trkpt lat="42.78153" lon="0.12985">
        <ele>2131</ele>
        <time>2022-02-24T07:56:53Z</time>
      </trkpt>
      <trkpt lat="42.78148" lon="0.12976">
        <ele>2134</ele>
        <time>2022-02-24T07:57:11Z</time>
      </trkpt>
      <trkpt lat="42.78139" lon="0.12965">
        <ele>2137</ele>
        <time>2022-02-24T07:57:32Z</time>
      </trkpt>
      <trkpt lat="42.78134" lon="0.12954">
        <ele>2140</ele>
        <time>2022-02-24T07:57:51Z</time>
      </trkpt>
      <trkpt lat="42.78139" lon="0.12948">
        <ele>2143</ele>
        <time>2022-02-24T07:58:06Z</time>
      </trkpt>
      <trkpt lat="42.78144" lon="0.1294">
        <ele>2145</ele>
        <time>2022-02-24T07:58:25Z</time>
      </trkpt>
      <trkpt lat="42.78151" lon="0.12933">
        <ele>2149</ele>
        <time>2022-02-24T07:58:41Z</time>
      </trkpt>
      <trkpt lat="42.78148" lon="0.12926">
        <ele>2152</ele>
        <time>2022-02-24T07:58:56Z</time>
      </trkpt>
      <trkpt lat="42.78139" lon="0.12915">
        <ele>2155</ele>
        <time>2022-02-24T07:59:16Z</time>
      </trkpt>
      <trkpt lat="42.78138" lon="0.12912">
        <ele>2155</ele>
        <time>2022-02-24T07:59:29Z</time>
      </trkpt>
      <trkpt lat="42.7814" lon="0.12914">
        <ele>2155</ele>
        <time>2022-02-24T07:59:51Z</time>
      </trkpt>
      <trkpt lat="42.78141" lon="0.12912">
        <ele>2155</ele>
        <time>2022-02-24T08:00:07Z</time>
      </trkpt>
      <trkpt lat="42.7814" lon="0.12912">
        <ele>2156</ele>
        <time>2022-02-24T08:00:30Z</time>
      </trkpt>
      <trkpt lat="42.78136" lon="0.12906">
        <ele>2157</ele>
        <time>2022-02-24T08:00:41Z</time>
      </trkpt>
      <trkpt lat="42.78133" lon="0.12907">
        <ele>2157</ele>
        <time>2022-02-24T08:01:00Z</time>
      </trkpt>
      <trkpt lat="42.78139" lon="0.12899">
        <ele>2159</ele>
        <time>2022-02-24T08:01:16Z</time>
      </trkpt>
      <trkpt lat="42.78142" lon="0.12896">
        <ele>2161</ele>
        <time>2022-02-24T08:01:34Z</time>
      </trkpt>
      <trkpt lat="42.78149" lon="0.12891">
        <ele>2164</ele>
        <time>2022-02-24T08:01:49Z</time>
      </trkpt>
      <trkpt lat="42.78154" lon="0.12883">
        <ele>2167</ele>
        <time>2022-02-24T08:02:06Z</time>
      </trkpt>
      <trkpt lat="42.78163" lon="0.12877">
        <ele>2169</ele>
        <time>2022-02-24T08:02:21Z</time>
      </trkpt>
      <trkpt lat="42.78173" lon="0.12871">
        <ele>2172</ele>
        <time>2022-02-24T08:02:38Z</time>
      </trkpt>
      <trkpt lat="42.78169" lon="0.12864">
        <ele>2174</ele>
        <time>2022-02-24T08:02:53Z</time>
      </trkpt>
      <trkpt lat="42.78166" lon="0.12857">
        <ele>2176</ele>
        <time>2022-02-24T08:03:05Z</time>
      </trkpt>
      <trkpt lat="42.78159" lon="0.12846">
        <ele>2178</ele>
        <time>2022-02-24T08:03:21Z</time>
      </trkpt>
      <trkpt lat="42.78154" lon="0.12839">
        <ele>2182</ele>
        <time>2022-02-24T08:03:37Z</time>
      </trkpt>
      <trkpt lat="42.78144" lon="0.12833">
        <ele>2184</ele>
        <time>2022-02-24T08:03:55Z</time>
      </trkpt>
      <trkpt lat="42.78134" lon="0.12827">
        <ele>2186</ele>
        <time>2022-02-24T08:04:09Z</time>
      </trkpt>
      <trkpt lat="42.78128" lon="0.12817">
        <ele>2189</ele>
        <time>2022-02-24T08:04:28Z</time>
      </trkpt>
      <trkpt lat="42.78121" lon="0.12809">
        <ele>2191</ele>
        <time>2022-02-24T08:04:46Z</time>
      </trkpt>
      <trkpt lat="42.78119" lon="0.12799">
        <ele>2194</ele>
        <time>2022-02-24T08:05:02Z</time>
      </trkpt>
      <trkpt lat="42.78125" lon="0.12787">
        <ele>2196</ele>
        <time>2022-02-24T08:05:18Z</time>
      </trkpt>
      <trkpt lat="42.78132" lon="0.1278">
        <ele>2199</ele>
        <time>2022-02-24T08:05:33Z</time>
      </trkpt>
      <trkpt lat="42.7814" lon="0.12781">
        <ele>2201</ele>
        <time>2022-02-24T08:05:49Z</time>
      </trkpt>
      <trkpt lat="42.78141" lon="0.12778">
        <ele>2203</ele>
        <time>2022-02-24T08:06:04Z</time>
      </trkpt>
      <trkpt lat="42.78137" lon="0.1277">
        <ele>2205</ele>
        <time>2022-02-24T08:06:15Z</time>
      </trkpt>
      <trkpt lat="42.78131" lon="0.12757">
        <ele>2208</ele>
        <time>2022-02-24T08:06:35Z</time>
      </trkpt>
      <trkpt lat="42.78136" lon="0.12747">
        <ele>2210</ele>
        <time>2022-02-24T08:06:50Z</time>
      </trkpt>
      <trkpt lat="42.78142" lon="0.12748">
        <ele>2213</ele>
        <time>2022-02-24T08:07:05Z</time>
      </trkpt>
      <trkpt lat="42.78149" lon="0.12742">
        <ele>2216</ele>
        <time>2022-02-24T08:07:25Z</time>
      </trkpt>
      <trkpt lat="42.78145" lon="0.12732">
        <ele>2218</ele>
        <time>2022-02-24T08:07:41Z</time>
      </trkpt>
      <trkpt lat="42.78144" lon="0.12724">
        <ele>2222</ele>
        <time>2022-02-24T08:07:57Z</time>
      </trkpt>
      <trkpt lat="42.78142" lon="0.12715">
        <ele>2224</ele>
        <time>2022-02-24T08:08:13Z</time>
      </trkpt>
      <trkpt lat="42.78139" lon="0.12703">
        <ele>2227</ele>
        <time>2022-02-24T08:08:29Z</time>
      </trkpt>
      <trkpt lat="42.78137" lon="0.12697">
        <ele>2229</ele>
        <time>2022-02-24T08:08:43Z</time>
      </trkpt>
      <trkpt lat="42.78134" lon="0.12694">
        <ele>2231</ele>
        <time>2022-02-24T08:08:57Z</time>
      </trkpt>
      <trkpt lat="42.78131" lon="0.12696">
        <ele>2233</ele>
        <time>2022-02-24T08:09:13Z</time>
      </trkpt>
      <trkpt lat="42.78126" lon="0.12693">
        <ele>2234</ele>
        <time>2022-02-24T08:09:29Z</time>
      </trkpt>
      <trkpt lat="42.78122" lon="0.12687">
        <ele>2236</ele>
        <time>2022-02-24T08:09:42Z</time>
      </trkpt>
      <trkpt lat="42.78121" lon="0.12678">
        <ele>2239</ele>
        <time>2022-02-24T08:09:54Z</time>
      </trkpt>
      <trkpt lat="42.78118" lon="0.1267">
        <ele>2240</ele>
        <time>2022-02-24T08:10:08Z</time>
      </trkpt>
      <trkpt lat="42.78113" lon="0.1266">
        <ele>2243</ele>
        <time>2022-02-24T08:10:24Z</time>
      </trkpt>
      <trkpt lat="42.78108" lon="0.12647">
        <ele>2246</ele>
        <time>2022-02-24T08:10:40Z</time>
      </trkpt>
      <trkpt lat="42.78104" lon="0.12634">
        <ele>2248</ele>
        <time>2022-02-24T08:10:56Z</time>
      </trkpt>
      <trkpt lat="42.78097" lon="0.12627">
        <ele>2251</ele>
        <time>2022-02-24T08:11:13Z</time>
      </trkpt>
      <trkpt lat="42.78096" lon="0.12616">
        <ele>2254</ele>
        <time>2022-02-24T08:11:28Z</time>
      </trkpt>
      <trkpt lat="42.78096" lon="0.12605">
        <ele>2256</ele>
        <time>2022-02-24T08:11:45Z</time>
      </trkpt>
      <trkpt lat="42.78089" lon="0.12588">
        <ele>2259</ele>
        <time>2022-02-24T08:12:01Z</time>
      </trkpt>
      <trkpt lat="42.78083" lon="0.12577">
        <ele>2261</ele>
        <time>2022-02-24T08:12:16Z</time>
      </trkpt>
      <trkpt lat="42.78078" lon="0.12562">
        <ele>2264</ele>
        <time>2022-02-24T08:12:32Z</time>
      </trkpt>
      <trkpt lat="42.78071" lon="0.12547">
        <ele>2265</ele>
        <time>2022-02-24T08:12:47Z</time>
      </trkpt>
      <trkpt lat="42.78064" lon="0.12536">
        <ele>2268</ele>
        <time>2022-02-24T08:13:05Z</time>
      </trkpt>
      <trkpt lat="42.78062" lon="0.12534">
        <ele>2268</ele>
        <time>2022-02-24T08:13:09Z</time>
      </trkpt>
      <trkpt lat="42.78058" lon="0.12538">
        <ele>2270</ele>
        <time>2022-02-24T08:13:26Z</time>
      </trkpt>
      <trkpt lat="42.7805" lon="0.12544">
        <ele>2271</ele>
        <time>2022-02-24T08:13:41Z</time>
      </trkpt>
      <trkpt lat="42.78044" lon="0.12546">
        <ele>2273</ele>
        <time>2022-02-24T08:13:52Z</time>
      </trkpt>
      <trkpt lat="42.78041" lon="0.12545">
        <ele>2274</ele>
        <time>2022-02-24T08:13:56Z</time>
      </trkpt>
      <trkpt lat="42.78035" lon="0.12545">
        <ele>2275</ele>
        <time>2022-02-24T08:14:04Z</time>
      </trkpt>
      <trkpt lat="42.78028" lon="0.12549">
        <ele>2276</ele>
        <time>2022-02-24T08:14:17Z</time>
      </trkpt>
      <trkpt lat="42.78021" lon="0.12548">
        <ele>2278</ele>
        <time>2022-02-24T08:14:32Z</time>
      </trkpt>
      <trkpt lat="42.78012" lon="0.12545">
        <ele>2281</ele>
        <time>2022-02-24T08:14:51Z</time>
      </trkpt>
      <trkpt lat="42.78004" lon="0.1255">
        <ele>2284</ele>
        <time>2022-02-24T08:15:03Z</time>
      </trkpt>
      <trkpt lat="42.77997" lon="0.12554">
        <ele>2286</ele>
        <time>2022-02-24T08:15:16Z</time>
      </trkpt>
      <trkpt lat="42.77993" lon="0.12558">
        <ele>2287</ele>
        <time>2022-02-24T08:15:32Z</time>
      </trkpt>
      <trkpt lat="42.77986" lon="0.12562">
        <ele>2290</ele>
        <time>2022-02-24T08:15:47Z</time>
      </trkpt>
      <trkpt lat="42.77984" lon="0.12541">
        <ele>2291</ele>
        <time>2022-02-24T08:16:03Z</time>
      </trkpt>
      <trkpt lat="42.77975" lon="0.12537">
        <ele>2293</ele>
        <time>2022-02-24T08:16:16Z</time>
      </trkpt>
      <trkpt lat="42.77969" lon="0.12534">
        <ele>2295</ele>
        <time>2022-02-24T08:16:32Z</time>
      </trkpt>
      <trkpt lat="42.77964" lon="0.12532">
        <ele>2297</ele>
        <time>2022-02-24T08:16:49Z</time>
      </trkpt>
      <trkpt lat="42.77957" lon="0.12527">
        <ele>2301</ele>
        <time>2022-02-24T08:17:04Z</time>
      </trkpt>
      <trkpt lat="42.77957" lon="0.1252">
        <ele>2301</ele>
        <time>2022-02-24T08:17:22Z</time>
      </trkpt>
      <trkpt lat="42.77961" lon="0.12512">
        <ele>2302</ele>
        <time>2022-02-24T08:17:39Z</time>
      </trkpt>
      <trkpt lat="42.77957" lon="0.12507">
        <ele>2304</ele>
        <time>2022-02-24T08:17:56Z</time>
      </trkpt>
      <trkpt lat="42.7795" lon="0.12505">
        <ele>2306</ele>
        <time>2022-02-24T08:18:11Z</time>
      </trkpt>
      <trkpt lat="42.77943" lon="0.125">
        <ele>2310</ele>
        <time>2022-02-24T08:18:26Z</time>
      </trkpt>
      <trkpt lat="42.7794" lon="0.125">
        <ele>2311</ele>
        <time>2022-02-24T08:18:40Z</time>
      </trkpt>
      <trkpt lat="42.77931" lon="0.12499">
        <ele>2314</ele>
        <time>2022-02-24T08:18:53Z</time>
      </trkpt>
      <trkpt lat="42.77924" lon="0.12502">
        <ele>2315</ele>
        <time>2022-02-24T08:19:08Z</time>
      </trkpt>
      <trkpt lat="42.77919" lon="0.12498">
        <ele>2317</ele>
        <time>2022-02-24T08:19:22Z</time>
      </trkpt>
      <trkpt lat="42.77912" lon="0.12482">
        <ele>2319</ele>
        <time>2022-02-24T08:19:41Z</time>
      </trkpt>
      <trkpt lat="42.77909" lon="0.12484">
        <ele>2322</ele>
        <time>2022-02-24T08:19:56Z</time>
      </trkpt>
      <trkpt lat="42.77909" lon="0.12474">
        <ele>2324</ele>
        <time>2022-02-24T08:20:08Z</time>
      </trkpt>
      <trkpt lat="42.77911" lon="0.1247">
        <ele>2326</ele>
        <time>2022-02-24T08:20:28Z</time>
      </trkpt>
      <trkpt lat="42.7792" lon="0.12458">
        <ele>2328</ele>
        <time>2022-02-24T08:20:47Z</time>
      </trkpt>
      <trkpt lat="42.77917" lon="0.12457">
        <ele>2329</ele>
        <time>2022-02-24T08:21:02Z</time>
      </trkpt>
      <trkpt lat="42.77912" lon="0.1246">
        <ele>2332</ele>
        <time>2022-02-24T08:21:16Z</time>
      </trkpt>
      <trkpt lat="42.77903" lon="0.12458">
        <ele>2334</ele>
        <time>2022-02-24T08:21:31Z</time>
      </trkpt>
      <trkpt lat="42.77895" lon="0.12458">
        <ele>2336</ele>
        <time>2022-02-24T08:21:44Z</time>
      </trkpt>
      <trkpt lat="42.77887" lon="0.12456">
        <ele>2338</ele>
        <time>2022-02-24T08:22:00Z</time>
      </trkpt>
      <trkpt lat="42.77882" lon="0.12445">
        <ele>2340</ele>
        <time>2022-02-24T08:22:14Z</time>
      </trkpt>
      <trkpt lat="42.7788" lon="0.12433">
        <ele>2342</ele>
        <time>2022-02-24T08:22:28Z</time>
      </trkpt>
      <trkpt lat="42.77877" lon="0.1242">
        <ele>2345</ele>
        <time>2022-02-24T08:22:44Z</time>
      </trkpt>
      <trkpt lat="42.77877" lon="0.12411">
        <ele>2347</ele>
        <time>2022-02-24T08:23:00Z</time>
      </trkpt>
      <trkpt lat="42.77865" lon="0.12388">
        <ele>2351</ele>
        <time>2022-02-24T08:23:16Z</time>
      </trkpt>
      <trkpt lat="42.77878" lon="0.12386">
        <ele>2353</ele>
        <time>2022-02-24T08:23:33Z</time>
      </trkpt>
      <trkpt lat="42.77874" lon="0.12386">
        <ele>2355</ele>
        <time>2022-02-24T08:23:49Z</time>
      </trkpt>
      <trkpt lat="42.77875" lon="0.12375">
        <ele>2358</ele>
        <time>2022-02-24T08:24:02Z</time>
      </trkpt>
      <trkpt lat="42.77878" lon="0.12362">
        <ele>2359</ele>
        <time>2022-02-24T08:24:15Z</time>
      </trkpt>
      <trkpt lat="42.77884" lon="0.12352">
        <ele>2363</ele>
        <time>2022-02-24T08:24:32Z</time>
      </trkpt>
      <trkpt lat="42.77883" lon="0.12345">
        <ele>2365</ele>
        <time>2022-02-24T08:24:49Z</time>
      </trkpt>
      <trkpt lat="42.77877" lon="0.12341">
        <ele>2366</ele>
        <time>2022-02-24T08:25:04Z</time>
      </trkpt>
      <trkpt lat="42.77873" lon="0.12335">
        <ele>2370</ele>
        <time>2022-02-24T08:25:20Z</time>
      </trkpt>
      <trkpt lat="42.7787" lon="0.12326">
        <ele>2372</ele>
        <time>2022-02-24T08:25:35Z</time>
      </trkpt>
      <trkpt lat="42.77866" lon="0.12316">
        <ele>2375</ele>
        <time>2022-02-24T08:25:51Z</time>
      </trkpt>
      <trkpt lat="42.77862" lon="0.1231">
        <ele>2377</ele>
        <time>2022-02-24T08:26:05Z</time>
      </trkpt>
      <trkpt lat="42.77869" lon="0.123">
        <ele>2380</ele>
        <time>2022-02-24T08:26:19Z</time>
      </trkpt>
      <trkpt lat="42.77871" lon="0.12289">
        <ele>2383</ele>
        <time>2022-02-24T08:26:36Z</time>
      </trkpt>
      <trkpt lat="42.77875" lon="0.12282">
        <ele>2385</ele>
        <time>2022-02-24T08:26:52Z</time>
      </trkpt>
      <trkpt lat="42.77867" lon="0.12277">
        <ele>2388</ele>
        <time>2022-02-24T08:27:10Z</time>
      </trkpt>
      <trkpt lat="42.77862" lon="0.12271">
        <ele>2390</ele>
        <time>2022-02-24T08:27:23Z</time>
      </trkpt>
      <trkpt lat="42.77864" lon="0.12265">
        <ele>2391</ele>
        <time>2022-02-24T08:27:39Z</time>
      </trkpt>
      <trkpt lat="42.7787" lon="0.1226">
        <ele>2393</ele>
        <time>2022-02-24T08:27:52Z</time>
      </trkpt>
      <trkpt lat="42.7787" lon="0.12258">
        <ele>2394</ele>
        <time>2022-02-24T08:28:05Z</time>
      </trkpt>
      <trkpt lat="42.77862" lon="0.12253">
        <ele>2397</ele>
        <time>2022-02-24T08:28:24Z</time>
      </trkpt>
      <trkpt lat="42.77855" lon="0.12249">
        <ele>2398</ele>
        <time>2022-02-24T08:28:38Z</time>
      </trkpt>
      <trkpt lat="42.77853" lon="0.12249">
        <ele>2400</ele>
        <time>2022-02-24T08:28:44Z</time>
      </trkpt>
      <trkpt lat="42.77852" lon="0.12245">
        <ele>2402</ele>
        <time>2022-02-24T08:29:00Z</time>
      </trkpt>
      <trkpt lat="42.77849" lon="0.12238">
        <ele>2402</ele>
        <time>2022-02-24T08:29:27Z</time>
      </trkpt>
      <trkpt lat="42.77851" lon="0.12237">
        <ele>2401</ele>
        <time>2022-02-24T08:29:43Z</time>
      </trkpt>
      <trkpt lat="42.77862" lon="0.1223">
        <ele>2404</ele>
        <time>2022-02-24T08:29:58Z</time>
      </trkpt>
      <trkpt lat="42.77873" lon="0.12231">
        <ele>2406</ele>
        <time>2022-02-24T08:30:13Z</time>
      </trkpt>
      <trkpt lat="42.77874" lon="0.12228">
        <ele>2407</ele>
        <time>2022-02-24T08:30:26Z</time>
      </trkpt>
      <trkpt lat="42.77869" lon="0.12227">
        <ele>2408</ele>
        <time>2022-02-24T08:30:39Z</time>
      </trkpt>
      <trkpt lat="42.7786" lon="0.12226">
        <ele>2409</ele>
        <time>2022-02-24T08:30:55Z</time>
      </trkpt>
      <trkpt lat="42.77851" lon="0.12226">
        <ele>2411</ele>
        <time>2022-02-24T08:31:11Z</time>
      </trkpt>
      <trkpt lat="42.7784" lon="0.12227">
        <ele>2413</ele>
        <time>2022-02-24T08:31:30Z</time>
      </trkpt>
      <trkpt lat="42.77833" lon="0.1223">
        <ele>2415</ele>
        <time>2022-02-24T08:31:44Z</time>
      </trkpt>
      <trkpt lat="42.77826" lon="0.12237">
        <ele>2417</ele>
        <time>2022-02-24T08:31:56Z</time>
      </trkpt>
      <trkpt lat="42.77825" lon="0.12237">
        <ele>2418</ele>
        <time>2022-02-24T08:32:12Z</time>
      </trkpt>
      <trkpt lat="42.77828" lon="0.12228">
        <ele>2419</ele>
        <time>2022-02-24T08:32:34Z</time>
      </trkpt>
      <trkpt lat="42.77826" lon="0.12222">
        <ele>2421</ele>
        <time>2022-02-24T08:32:42Z</time>
      </trkpt>
      <trkpt lat="42.77827" lon="0.12209">
        <ele>2422</ele>
        <time>2022-02-24T08:33:01Z</time>
      </trkpt>
      <trkpt lat="42.77829" lon="0.12204">
        <ele>2424</ele>
        <time>2022-02-24T08:33:12Z</time>
      </trkpt>
      <trkpt lat="42.77833" lon="0.12197">
        <ele>2426</ele>
        <time>2022-02-24T08:33:26Z</time>
      </trkpt>
      <trkpt lat="42.77838" lon="0.12189">
        <ele>2428</ele>
        <time>2022-02-24T08:33:41Z</time>
      </trkpt>
      <trkpt lat="42.77839" lon="0.12194">
        <ele>2429</ele>
        <time>2022-02-24T08:33:56Z</time>
      </trkpt>
      <trkpt lat="42.77835" lon="0.12191">
        <ele>2430</ele>
        <time>2022-02-24T08:34:17Z</time>
      </trkpt>
      <trkpt lat="42.77827" lon="0.12183">
        <ele>2433</ele>
        <time>2022-02-24T08:34:34Z</time>
      </trkpt>
      <trkpt lat="42.77835" lon="0.1218">
        <ele>2434</ele>
        <time>2022-02-24T08:34:52Z</time>
      </trkpt>
      <trkpt lat="42.77841" lon="0.12178">
        <ele>2435</ele>
        <time>2022-02-24T08:35:05Z</time>
      </trkpt>
      <trkpt lat="42.77842" lon="0.12178">
        <ele>2435</ele>
        <time>2022-02-24T08:35:27Z</time>
      </trkpt>
      <trkpt lat="42.77846" lon="0.12176">
        <ele>2437</ele>
        <time>2022-02-24T08:35:44Z</time>
      </trkpt>
      <trkpt lat="42.77849" lon="0.12174">
        <ele>2437</ele>
        <time>2022-02-24T08:36:12Z</time>
      </trkpt>
      <trkpt lat="42.77853" lon="0.12172">
        <ele>2437</ele>
        <time>2022-02-24T08:36:26Z</time>
      </trkpt>
      <trkpt lat="42.77857" lon="0.12168">
        <ele>2439</ele>
        <time>2022-02-24T08:36:40Z</time>
      </trkpt>
      <trkpt lat="42.7786" lon="0.12163">
        <ele>2441</ele>
        <time>2022-02-24T08:36:54Z</time>
      </trkpt>
      <trkpt lat="42.77861" lon="0.1216">
        <ele>2442</ele>
        <time>2022-02-24T08:36:59Z</time>
      </trkpt>
      <trkpt lat="42.77863" lon="0.12152">
        <ele>2443</ele>
        <time>2022-02-24T08:37:13Z</time>
      </trkpt>
      <trkpt lat="42.77862" lon="0.12142">
        <ele>2445</ele>
        <time>2022-02-24T08:37:27Z</time>
      </trkpt>
      <trkpt lat="42.77861" lon="0.12132">
        <ele>2446</ele>
        <time>2022-02-24T08:37:41Z</time>
      </trkpt>
      <trkpt lat="42.77861" lon="0.12136">
        <ele>2446</ele>
        <time>2022-02-24T08:37:55Z</time>
      </trkpt>
      <trkpt lat="42.77863" lon="0.12138">
        <ele>2446</ele>
        <time>2022-02-24T08:38:18Z</time>
      </trkpt>
      <trkpt lat="42.77864" lon="0.12137">
        <ele>2446</ele>
        <time>2022-02-24T08:38:36Z</time>
      </trkpt>
      <trkpt lat="42.77865" lon="0.12137">
        <ele>2446</ele>
        <time>2022-02-24T08:38:58Z</time>
      </trkpt>
      <trkpt lat="42.77864" lon="0.12135">
        <ele>2446</ele>
        <time>2022-02-24T08:39:21Z</time>
      </trkpt>
      <trkpt lat="42.77863" lon="0.12133">
        <ele>2446</ele>
        <time>2022-02-24T08:39:46Z</time>
      </trkpt>
      <trkpt lat="42.77863" lon="0.12134">
        <ele>2446</ele>
        <time>2022-02-24T08:40:06Z</time>
      </trkpt>
      <trkpt lat="42.77863" lon="0.12135">
        <ele>2445</ele>
        <time>2022-02-24T08:40:30Z</time>
      </trkpt>
      <trkpt lat="42.77863" lon="0.12133">
        <ele>2444</ele>
        <time>2022-02-24T08:40:43Z</time>
      </trkpt>
      <trkpt lat="42.77861" lon="0.12135">
        <ele>2446</ele>
        <time>2022-02-24T08:41:09Z</time>
      </trkpt>
      <trkpt lat="42.77861" lon="0.12128">
        <ele>2445</ele>
        <time>2022-02-24T08:41:34Z</time>
      </trkpt>
      <trkpt lat="42.77863" lon="0.12137">
        <ele>2445</ele>
        <time>2022-02-24T08:42:01Z</time>
      </trkpt>
      <trkpt lat="42.77863" lon="0.12132">
        <ele>2445</ele>
        <time>2022-02-24T08:42:19Z</time>
      </trkpt>
      <trkpt lat="42.77861" lon="0.12133">
        <ele>2446</ele>
        <time>2022-02-24T08:42:50Z</time>
      </trkpt>
      <trkpt lat="42.77861" lon="0.12132">
        <ele>2441</ele>
        <time>2022-02-24T08:42:54Z</time>
      </trkpt>
      <trkpt lat="42.77861" lon="0.12132">
        <ele>2448</ele>
        <time>2022-02-24T08:42:55Z</time>
      </trkpt>
      <trkpt lat="42.7786" lon="0.12133">
        <ele>2445</ele>
        <time>2022-02-24T08:42:58Z</time>
      </trkpt>
      <trkpt lat="42.77861" lon="0.12134">
        <ele>2445</ele>
        <time>2022-02-24T08:43:18Z</time>
      </trkpt>
      <trkpt lat="42.77862" lon="0.12125">
        <ele>2445</ele>
        <time>2022-02-24T08:43:30Z</time>
      </trkpt>
      <trkpt lat="42.77861" lon="0.12111">
        <ele>2447</ele>
        <time>2022-02-24T08:43:44Z</time>
      </trkpt>
      <trkpt lat="42.77863" lon="0.12098">
        <ele>2449</ele>
        <time>2022-02-24T08:44:01Z</time>
      </trkpt>
      <trkpt lat="42.77857" lon="0.12093">
        <ele>2452</ele>
        <time>2022-02-24T08:44:18Z</time>
      </trkpt>
      <trkpt lat="42.77848" lon="0.12087">
        <ele>2455</ele>
        <time>2022-02-24T08:44:36Z</time>
      </trkpt>
      <trkpt lat="42.77846" lon="0.12074">
        <ele>2457</ele>
        <time>2022-02-24T08:44:52Z</time>
      </trkpt>
      <trkpt lat="42.77848" lon="0.12066">
        <ele>2460</ele>
        <time>2022-02-24T08:45:07Z</time>
      </trkpt>
      <trkpt lat="42.77847" lon="0.12066">
        <ele>2461</ele>
        <time>2022-02-24T08:45:10Z</time>
      </trkpt>
      <trkpt lat="42.77838" lon="0.12062">
        <ele>2464</ele>
        <time>2022-02-24T08:45:29Z</time>
      </trkpt>
      <trkpt lat="42.77835" lon="0.12049">
        <ele>2465</ele>
        <time>2022-02-24T08:45:46Z</time>
      </trkpt>
      <trkpt lat="42.77835" lon="0.12042">
        <ele>2466</ele>
        <time>2022-02-24T08:46:00Z</time>
      </trkpt>
      <trkpt lat="42.77837" lon="0.12036">
        <ele>2469</ele>
        <time>2022-02-24T08:46:12Z</time>
      </trkpt>
      <trkpt lat="42.7784" lon="0.12031">
        <ele>2471</ele>
        <time>2022-02-24T08:46:26Z</time>
      </trkpt>
      <trkpt lat="42.77847" lon="0.12026">
        <ele>2473</ele>
        <time>2022-02-24T08:46:43Z</time>
      </trkpt>
      <trkpt lat="42.77857" lon="0.12026">
        <ele>2475</ele>
        <time>2022-02-24T08:47:01Z</time>
      </trkpt>
      <trkpt lat="42.77867" lon="0.12026">
        <ele>2477</ele>
        <time>2022-02-24T08:47:18Z</time>
      </trkpt>
      <trkpt lat="42.77868" lon="0.12024">
        <ele>2479</ele>
        <time>2022-02-24T08:47:29Z</time>
      </trkpt>
      <trkpt lat="42.77875" lon="0.12023">
        <ele>2482</ele>
        <time>2022-02-24T08:47:44Z</time>
      </trkpt>
      <trkpt lat="42.77876" lon="0.12024">
        <ele>2482</ele>
        <time>2022-02-24T08:47:58Z</time>
      </trkpt>
      <trkpt lat="42.77873" lon="0.1202">
        <ele>2484</ele>
        <time>2022-02-24T08:48:10Z</time>
      </trkpt>
      <trkpt lat="42.7787" lon="0.12011">
        <ele>2486</ele>
        <time>2022-02-24T08:48:23Z</time>
      </trkpt>
      <trkpt lat="42.77864" lon="0.12">
        <ele>2489</ele>
        <time>2022-02-24T08:48:41Z</time>
      </trkpt>
      <trkpt lat="42.77867" lon="0.12001">
        <ele>2490</ele>
        <time>2022-02-24T08:48:54Z</time>
      </trkpt>
      <trkpt lat="42.77875" lon="0.11999">
        <ele>2491</ele>
        <time>2022-02-24T08:49:06Z</time>
      </trkpt>
      <trkpt lat="42.77879" lon="0.11998">
        <ele>2493</ele>
        <time>2022-02-24T08:49:12Z</time>
      </trkpt>
      <trkpt lat="42.77887" lon="0.11995">
        <ele>2496</ele>
        <time>2022-02-24T08:49:26Z</time>
      </trkpt>
      <trkpt lat="42.77885" lon="0.11995">
        <ele>2495</ele>
        <time>2022-02-24T08:49:42Z</time>
      </trkpt>
      <trkpt lat="42.7788" lon="0.11991">
        <ele>2497</ele>
        <time>2022-02-24T08:49:57Z</time>
      </trkpt>
      <trkpt lat="42.77872" lon="0.1198">
        <ele>2498</ele>
        <time>2022-02-24T08:50:14Z</time>
      </trkpt>
      <trkpt lat="42.77869" lon="0.11976">
        <ele>2501</ele>
        <time>2022-02-24T08:50:26Z</time>
      </trkpt>
      <trkpt lat="42.77863" lon="0.11966">
        <ele>2503</ele>
        <time>2022-02-24T08:50:44Z</time>
      </trkpt>
      <trkpt lat="42.77862" lon="0.11955">
        <ele>2507</ele>
        <time>2022-02-24T08:50:58Z</time>
      </trkpt>
      <trkpt lat="42.77864" lon="0.11941">
        <ele>2508</ele>
        <time>2022-02-24T08:51:12Z</time>
      </trkpt>
      <trkpt lat="42.77866" lon="0.11931">
        <ele>2510</ele>
        <time>2022-02-24T08:51:26Z</time>
      </trkpt>
      <trkpt lat="42.77869" lon="0.11915">
        <ele>2513</ele>
        <time>2022-02-24T08:51:47Z</time>
      </trkpt>
      <trkpt lat="42.77869" lon="0.119">
        <ele>2514</ele>
        <time>2022-02-24T08:52:03Z</time>
      </trkpt>
      <trkpt lat="42.77867" lon="0.11884">
        <ele>2515</ele>
        <time>2022-02-24T08:52:21Z</time>
      </trkpt>
      <trkpt lat="42.77867" lon="0.11874">
        <ele>2517</ele>
        <time>2022-02-24T08:52:39Z</time>
      </trkpt>
      <trkpt lat="42.77867" lon="0.1186">
        <ele>2520</ele>
        <time>2022-02-24T08:52:56Z</time>
      </trkpt>
      <trkpt lat="42.77866" lon="0.11846">
        <ele>2522</ele>
        <time>2022-02-24T08:53:12Z</time>
      </trkpt>
      <trkpt lat="42.77866" lon="0.11836">
        <ele>2525</ele>
        <time>2022-02-24T08:53:28Z</time>
      </trkpt>
      <trkpt lat="42.77863" lon="0.11822">
        <ele>2526</ele>
        <time>2022-02-24T08:53:47Z</time>
      </trkpt>
      <trkpt lat="42.77862" lon="0.11807">
        <ele>2528</ele>
        <time>2022-02-24T08:54:04Z</time>
      </trkpt>
      <trkpt lat="42.7786" lon="0.11796">
        <ele>2530</ele>
        <time>2022-02-24T08:54:21Z</time>
      </trkpt>
      <trkpt lat="42.77857" lon="0.11787">
        <ele>2534</ele>
        <time>2022-02-24T08:54:35Z</time>
      </trkpt>
      <trkpt lat="42.77856" lon="0.11777">
        <ele>2536</ele>
        <time>2022-02-24T08:54:50Z</time>
      </trkpt>
      <trkpt lat="42.77852" lon="0.11763">
        <ele>2538</ele>
        <time>2022-02-24T08:55:07Z</time>
      </trkpt>
      <trkpt lat="42.77847" lon="0.11749">
        <ele>2540</ele>
        <time>2022-02-24T08:55:25Z</time>
      </trkpt>
      <trkpt lat="42.77844" lon="0.11735">
        <ele>2543</ele>
        <time>2022-02-24T08:55:46Z</time>
      </trkpt>
      <trkpt lat="42.7784" lon="0.11721">
        <ele>2545</ele>
        <time>2022-02-24T08:56:04Z</time>
      </trkpt>
      <trkpt lat="42.77836" lon="0.11709">
        <ele>2547</ele>
        <time>2022-02-24T08:56:20Z</time>
      </trkpt>
      <trkpt lat="42.77831" lon="0.11697">
        <ele>2550</ele>
        <time>2022-02-24T08:56:38Z</time>
      </trkpt>
      <trkpt lat="42.77827" lon="0.11686">
        <ele>2552</ele>
        <time>2022-02-24T08:56:55Z</time>
      </trkpt>
      <trkpt lat="42.77823" lon="0.11676">
        <ele>2554</ele>
        <time>2022-02-24T08:57:14Z</time>
      </trkpt>
      <trkpt lat="42.77817" lon="0.11667">
        <ele>2557</ele>
        <time>2022-02-24T08:57:29Z</time>
      </trkpt>
      <trkpt lat="42.77812" lon="0.11657">
        <ele>2558</ele>
        <time>2022-02-24T08:57:45Z</time>
      </trkpt>
      <trkpt lat="42.7781" lon="0.11646">
        <ele>2561</ele>
        <time>2022-02-24T08:58:02Z</time>
      </trkpt>
      <trkpt lat="42.77809" lon="0.11635">
        <ele>2563</ele>
        <time>2022-02-24T08:58:18Z</time>
      </trkpt>
      <trkpt lat="42.77807" lon="0.11624">
        <ele>2565</ele>
        <time>2022-02-24T08:58:34Z</time>
      </trkpt>
      <trkpt lat="42.77804" lon="0.11611">
        <ele>2568</ele>
        <time>2022-02-24T08:58:49Z</time>
      </trkpt>
      <trkpt lat="42.77805" lon="0.11599">
        <ele>2569</ele>
        <time>2022-02-24T08:59:01Z</time>
      </trkpt>
      <trkpt lat="42.77805" lon="0.11585">
        <ele>2572</ele>
        <time>2022-02-24T08:59:15Z</time>
      </trkpt>
      <trkpt lat="42.77807" lon="0.1158">
        <ele>2574</ele>
        <time>2022-02-24T08:59:25Z</time>
      </trkpt>
      <trkpt lat="42.77807" lon="0.11579">
        <ele>2573</ele>
        <time>2022-02-24T08:59:37Z</time>
      </trkpt>
      <trkpt lat="42.77811" lon="0.11585">
        <ele>2572</ele>
        <time>2022-02-24T08:59:58Z</time>
      </trkpt>
      <trkpt lat="42.77809" lon="0.11584">
        <ele>2574</ele>
        <time>2022-02-24T09:00:11Z</time>
      </trkpt>
      <trkpt lat="42.77808" lon="0.1158">
        <ele>2573</ele>
        <time>2022-02-24T09:00:32Z</time>
      </trkpt>
      <trkpt lat="42.77808" lon="0.11582">
        <ele>2574</ele>
        <time>2022-02-24T09:00:48Z</time>
      </trkpt>
      <trkpt lat="42.7781" lon="0.11588">
        <ele>2572</ele>
        <time>2022-02-24T09:01:02Z</time>
      </trkpt>
      <trkpt lat="42.77812" lon="0.11592">
        <ele>2572</ele>
        <time>2022-02-24T09:01:20Z</time>
      </trkpt>
      <trkpt lat="42.77814" lon="0.1159">
        <ele>2572</ele>
        <time>2022-02-24T09:01:50Z</time>
      </trkpt>
      <trkpt lat="42.77813" lon="0.11591">
        <ele>2572</ele>
        <time>2022-02-24T09:02:14Z</time>
      </trkpt>
      <trkpt lat="42.7781" lon="0.1159">
        <ele>2575</ele>
        <time>2022-02-24T09:02:21Z</time>
      </trkpt>
      <trkpt lat="42.77808" lon="0.11585">
        <ele>2574</ele>
        <time>2022-02-24T09:02:41Z</time>
      </trkpt>
      <trkpt lat="42.77807" lon="0.11584">
        <ele>2573</ele>
        <time>2022-02-24T09:02:52Z</time>
      </trkpt>
      <trkpt lat="42.77805" lon="0.11585">
        <ele>2574</ele>
        <time>2022-02-24T09:03:16Z</time>
      </trkpt>
      <trkpt lat="42.77809" lon="0.11579">
        <ele>2574</ele>
        <time>2022-02-24T09:03:32Z</time>
      </trkpt>
      <trkpt lat="42.77809" lon="0.11578">
        <ele>2573</ele>
        <time>2022-02-24T09:03:54Z</time>
      </trkpt>
      <trkpt lat="42.77811" lon="0.11577">
        <ele>2574</ele>
        <time>2022-02-24T09:04:14Z</time>
      </trkpt>
      <trkpt lat="42.7781" lon="0.11575">
        <ele>2573</ele>
        <time>2022-02-24T09:04:45Z</time>
      </trkpt>
      <trkpt lat="42.77814" lon="0.11581">
        <ele>2573</ele>
        <time>2022-02-24T09:05:03Z</time>
      </trkpt>
      <trkpt lat="42.77812" lon="0.11581">
        <ele>2574</ele>
        <time>2022-02-24T09:05:24Z</time>
      </trkpt>
      <trkpt lat="42.77809" lon="0.11583">
        <ele>2571</ele>
        <time>2022-02-24T09:05:33Z</time>
      </trkpt>
      <trkpt lat="42.77809" lon="0.11584">
        <ele>2575</ele>
        <time>2022-02-24T09:05:34Z</time>
      </trkpt>
      <trkpt lat="42.77808" lon="0.11583">
        <ele>2574</ele>
        <time>2022-02-24T09:06:02Z</time>
      </trkpt>
      <trkpt lat="42.77813" lon="0.11586">
        <ele>2573</ele>
        <time>2022-02-24T09:06:26Z</time>
      </trkpt>
      <trkpt lat="42.77812" lon="0.11587">
        <ele>2573</ele>
        <time>2022-02-24T09:06:45Z</time>
      </trkpt>
      <trkpt lat="42.77816" lon="0.11586">
        <ele>2574</ele>
        <time>2022-02-24T09:07:06Z</time>
      </trkpt>
      <trkpt lat="42.77815" lon="0.11584">
        <ele>2574</ele>
        <time>2022-02-24T09:07:27Z</time>
      </trkpt>
      <trkpt lat="42.77813" lon="0.11582">
        <ele>2574</ele>
        <time>2022-02-24T09:07:45Z</time>
      </trkpt>
      <trkpt lat="42.77814" lon="0.11581">
        <ele>2573</ele>
        <time>2022-02-24T09:07:49Z</time>
      </trkpt>
      <trkpt lat="42.77821" lon="0.11578">
        <ele>2576</ele>
        <time>2022-02-24T09:08:04Z</time>
      </trkpt>
      <trkpt lat="42.77828" lon="0.11572">
        <ele>2578</ele>
        <time>2022-02-24T09:08:18Z</time>
      </trkpt>
      <trkpt lat="42.77836" lon="0.11569">
        <ele>2580</ele>
        <time>2022-02-24T09:08:34Z</time>
      </trkpt>
      <trkpt lat="42.77833" lon="0.1156">
        <ele>2583</ele>
        <time>2022-02-24T09:08:47Z</time>
      </trkpt>
      <trkpt lat="42.7783" lon="0.11549">
        <ele>2586</ele>
        <time>2022-02-24T09:09:02Z</time>
      </trkpt>
      <trkpt lat="42.77828" lon="0.11537">
        <ele>2588</ele>
        <time>2022-02-24T09:09:19Z</time>
      </trkpt>
      <trkpt lat="42.77825" lon="0.11523">
        <ele>2591</ele>
        <time>2022-02-24T09:09:37Z</time>
      </trkpt>
      <trkpt lat="42.77832" lon="0.11512">
        <ele>2593</ele>
        <time>2022-02-24T09:09:53Z</time>
      </trkpt>
      <trkpt lat="42.77836" lon="0.11504">
        <ele>2595</ele>
        <time>2022-02-24T09:10:06Z</time>
      </trkpt>
      <trkpt lat="42.77837" lon="0.11495">
        <ele>2597</ele>
        <time>2022-02-24T09:10:21Z</time>
      </trkpt>
      <trkpt lat="42.77834" lon="0.11489">
        <ele>2599</ele>
        <time>2022-02-24T09:10:31Z</time>
      </trkpt>
      <trkpt lat="42.77833" lon="0.11482">
        <ele>2600</ele>
        <time>2022-02-24T09:10:45Z</time>
      </trkpt>
      <trkpt lat="42.77828" lon="0.11474">
        <ele>2602</ele>
        <time>2022-02-24T09:10:57Z</time>
      </trkpt>
      <trkpt lat="42.77827" lon="0.1146">
        <ele>2604</ele>
        <time>2022-02-24T09:11:12Z</time>
      </trkpt>
      <trkpt lat="42.77835" lon="0.11454">
        <ele>2607</ele>
        <time>2022-02-24T09:11:26Z</time>
      </trkpt>
      <trkpt lat="42.77842" lon="0.11447">
        <ele>2609</ele>
        <time>2022-02-24T09:11:44Z</time>
      </trkpt>
      <trkpt lat="42.77847" lon="0.11442">
        <ele>2611</ele>
        <time>2022-02-24T09:11:53Z</time>
      </trkpt>
      <trkpt lat="42.77852" lon="0.11439">
        <ele>2613</ele>
        <time>2022-02-24T09:12:08Z</time>
      </trkpt>
      <trkpt lat="42.7785" lon="0.1143">
        <ele>2616</ele>
        <time>2022-02-24T09:12:22Z</time>
      </trkpt>
      <trkpt lat="42.77851" lon="0.11424">
        <ele>2618</ele>
        <time>2022-02-24T09:12:33Z</time>
      </trkpt>
      <trkpt lat="42.77848" lon="0.11413">
        <ele>2620</ele>
        <time>2022-02-24T09:12:48Z</time>
      </trkpt>
      <trkpt lat="42.77846" lon="0.11405">
        <ele>2623</ele>
        <time>2022-02-24T09:13:01Z</time>
      </trkpt>
      <trkpt lat="42.77845" lon="0.11401">
        <ele>2625</ele>
        <time>2022-02-24T09:13:14Z</time>
      </trkpt>
      <trkpt lat="42.77852" lon="0.11393">
        <ele>2627</ele>
        <time>2022-02-24T09:13:28Z</time>
      </trkpt>
      <trkpt lat="42.77854" lon="0.11391">
        <ele>2629</ele>
        <time>2022-02-24T09:13:36Z</time>
      </trkpt>
      <trkpt lat="42.77864" lon="0.11386">
        <ele>2631</ele>
        <time>2022-02-24T09:13:54Z</time>
      </trkpt>
      <trkpt lat="42.77875" lon="0.11385">
        <ele>2633</ele>
        <time>2022-02-24T09:14:09Z</time>
      </trkpt>
      <trkpt lat="42.77885" lon="0.11385">
        <ele>2637</ele>
        <time>2022-02-24T09:14:22Z</time>
      </trkpt>
      <trkpt lat="42.77892" lon="0.11387">
        <ele>2637</ele>
        <time>2022-02-24T09:14:37Z</time>
      </trkpt>
      <trkpt lat="42.77898" lon="0.11389">
        <ele>2641</ele>
        <time>2022-02-24T09:14:51Z</time>
      </trkpt>
      <trkpt lat="42.77892" lon="0.11388">
        <ele>2642</ele>
        <time>2022-02-24T09:15:02Z</time>
      </trkpt>
      <trkpt lat="42.7789" lon="0.1138">
        <ele>2643</ele>
        <time>2022-02-24T09:15:18Z</time>
      </trkpt>
      <trkpt lat="42.77888" lon="0.11371">
        <ele>2646</ele>
        <time>2022-02-24T09:15:33Z</time>
      </trkpt>
      <trkpt lat="42.77889" lon="0.11364">
        <ele>2648</ele>
        <time>2022-02-24T09:15:49Z</time>
      </trkpt>
      <trkpt lat="42.779" lon="0.11366">
        <ele>2649</ele>
        <time>2022-02-24T09:16:00Z</time>
      </trkpt>
      <trkpt lat="42.77905" lon="0.1137">
        <ele>2651</ele>
        <time>2022-02-24T09:16:11Z</time>
      </trkpt>
      <trkpt lat="42.77914" lon="0.11377">
        <ele>2653</ele>
        <time>2022-02-24T09:16:27Z</time>
      </trkpt>
      <trkpt lat="42.77915" lon="0.11372">
        <ele>2655</ele>
        <time>2022-02-24T09:16:39Z</time>
      </trkpt>
      <trkpt lat="42.77911" lon="0.11365">
        <ele>2656</ele>
        <time>2022-02-24T09:16:47Z</time>
      </trkpt>
      <trkpt lat="42.7791" lon="0.11361">
        <ele>2657</ele>
        <time>2022-02-24T09:16:51Z</time>
      </trkpt>
      <trkpt lat="42.77903" lon="0.11344">
        <ele>2659</ele>
        <time>2022-02-24T09:17:12Z</time>
      </trkpt>
      <trkpt lat="42.779" lon="0.11338">
        <ele>2661</ele>
        <time>2022-02-24T09:17:27Z</time>
      </trkpt>
      <trkpt lat="42.77899" lon="0.11335">
        <ele>2661</ele>
        <time>2022-02-24T09:17:45Z</time>
      </trkpt>
      <trkpt lat="42.77894" lon="0.11328">
        <ele>2663</ele>
        <time>2022-02-24T09:18:01Z</time>
      </trkpt>
      <trkpt lat="42.77886" lon="0.1132">
        <ele>2665</ele>
        <time>2022-02-24T09:18:17Z</time>
      </trkpt>
      <trkpt lat="42.77878" lon="0.11315">
        <ele>2666</ele>
        <time>2022-02-24T09:18:32Z</time>
      </trkpt>
      <trkpt lat="42.77872" lon="0.11315">
        <ele>2667</ele>
        <time>2022-02-24T09:18:47Z</time>
      </trkpt>
      <trkpt lat="42.77869" lon="0.11313">
        <ele>2667</ele>
        <time>2022-02-24T09:19:04Z</time>
      </trkpt>
      <trkpt lat="42.77862" lon="0.11313">
        <ele>2667</ele>
        <time>2022-02-24T09:19:19Z</time>
      </trkpt>
      <trkpt lat="42.77855" lon="0.11311">
        <ele>2668</ele>
        <time>2022-02-24T09:19:37Z</time>
      </trkpt>
      <trkpt lat="42.77857" lon="0.11304">
        <ele>2668</ele>
        <time>2022-02-24T09:19:50Z</time>
      </trkpt>
      <trkpt lat="42.77863" lon="0.11301">
        <ele>2668</ele>
        <time>2022-02-24T09:20:05Z</time>
      </trkpt>
      <trkpt lat="42.77873" lon="0.11302">
        <ele>2670</ele>
        <time>2022-02-24T09:20:17Z</time>
      </trkpt>
      <trkpt lat="42.77882" lon="0.11302">
        <ele>2670</ele>
        <time>2022-02-24T09:20:30Z</time>
      </trkpt>
      <trkpt lat="42.7789" lon="0.11302">
        <ele>2672</ele>
        <time>2022-02-24T09:20:43Z</time>
      </trkpt>
      <trkpt lat="42.77888" lon="0.11309">
        <ele>2672</ele>
        <time>2022-02-24T09:20:56Z</time>
      </trkpt>
      <trkpt lat="42.77888" lon="0.11309">
        <ele>2673</ele>
        <time>2022-02-24T09:21:13Z</time>
      </trkpt>
      <trkpt lat="42.77888" lon="0.11309">
        <ele>2672</ele>
        <time>2022-02-24T09:21:28Z</time>
      </trkpt>
      <trkpt lat="42.77888" lon="0.11307">
        <ele>2672</ele>
        <time>2022-02-24T09:21:54Z</time>
      </trkpt>
      <trkpt lat="42.77888" lon="0.11307">
        <ele>2672</ele>
        <time>2022-02-24T09:22:12Z</time>
      </trkpt>
      <trkpt lat="42.77886" lon="0.1131">
        <ele>2672</ele>
        <time>2022-02-24T09:22:33Z</time>
      </trkpt>
      <trkpt lat="42.77887" lon="0.11309">
        <ele>2672</ele>
        <time>2022-02-24T09:22:52Z</time>
      </trkpt>
      <trkpt lat="42.77886" lon="0.11313">
        <ele>2672</ele>
        <time>2022-02-24T09:23:26Z</time>
      </trkpt>
      <trkpt lat="42.77886" lon="0.11312">
        <ele>2672</ele>
        <time>2022-02-24T09:23:43Z</time>
      </trkpt>
      <trkpt lat="42.77889" lon="0.1131">
        <ele>2671</ele>
        <time>2022-02-24T09:24:05Z</time>
      </trkpt>
      <trkpt lat="42.77888" lon="0.11309">
        <ele>2672</ele>
        <time>2022-02-24T09:24:34Z</time>
      </trkpt>
      <trkpt lat="42.77888" lon="0.1131">
        <ele>2672</ele>
        <time>2022-02-24T09:24:52Z</time>
      </trkpt>
      <trkpt lat="42.77887" lon="0.11311">
        <ele>2672</ele>
        <time>2022-02-24T09:25:12Z</time>
      </trkpt>
      <trkpt lat="42.77887" lon="0.1131">
        <ele>2672</ele>
        <time>2022-02-24T09:25:28Z</time>
      </trkpt>
      <trkpt lat="42.77887" lon="0.11309">
        <ele>2672</ele>
        <time>2022-02-24T09:25:32Z</time>
      </trkpt>
      <trkpt lat="42.77888" lon="0.11313">
        <ele>2671</ele>
        <time>2022-02-24T09:25:59Z</time>
      </trkpt>
      <trkpt lat="42.77888" lon="0.11311">
        <ele>2672</ele>
        <time>2022-02-24T09:26:18Z</time>
      </trkpt>
      <trkpt lat="42.77886" lon="0.11308">
        <ele>2671</ele>
        <time>2022-02-24T09:26:42Z</time>
      </trkpt>
      <trkpt lat="42.77887" lon="0.11307">
        <ele>2671</ele>
        <time>2022-02-24T09:26:57Z</time>
      </trkpt>
      <trkpt lat="42.77888" lon="0.11308">
        <ele>2671</ele>
        <time>2022-02-24T09:27:13Z</time>
      </trkpt>
      <trkpt lat="42.77886" lon="0.11309">
        <ele>2670</ele>
        <time>2022-02-24T09:27:27Z</time>
      </trkpt>
      <trkpt lat="42.77886" lon="0.11311">
        <ele>2670</ele>
        <time>2022-02-24T09:28:06Z</time>
      </trkpt>
      <trkpt lat="42.77888" lon="0.11313">
        <ele>2670</ele>
        <time>2022-02-24T09:28:41Z</time>
      </trkpt>
      <trkpt lat="42.77887" lon="0.11308">
        <ele>2670</ele>
        <time>2022-02-24T09:29:18Z</time>
      </trkpt>
      <trkpt lat="42.77887" lon="0.1131">
        <ele>2670</ele>
        <time>2022-02-24T09:29:46Z</time>
      </trkpt>
      <trkpt lat="42.77886" lon="0.1131">
        <ele>2670</ele>
        <time>2022-02-24T09:30:16Z</time>
      </trkpt>
      <trkpt lat="42.77885" lon="0.1131">
        <ele>2670</ele>
        <time>2022-02-24T09:30:45Z</time>
      </trkpt>
      <trkpt lat="42.77882" lon="0.11308">
        <ele>2670</ele>
        <time>2022-02-24T09:31:16Z</time>
      </trkpt>
      <trkpt lat="42.77883" lon="0.11308">
        <ele>2671</ele>
        <time>2022-02-24T09:31:45Z</time>
      </trkpt>
      <trkpt lat="42.77884" lon="0.11308">
        <ele>2671</ele>
        <time>2022-02-24T09:32:25Z</time>
      </trkpt>
      <trkpt lat="42.77884" lon="0.1131">
        <ele>2670</ele>
        <time>2022-02-24T09:32:55Z</time>
      </trkpt>
      <trkpt lat="42.77886" lon="0.11307">
        <ele>2670</ele>
        <time>2022-02-24T09:33:11Z</time>
      </trkpt>
      <trkpt lat="42.77889" lon="0.11311">
        <ele>2672</ele>
        <time>2022-02-24T09:33:28Z</time>
      </trkpt>
      <trkpt lat="42.7789" lon="0.1131">
        <ele>2672</ele>
        <time>2022-02-24T09:33:49Z</time>
      </trkpt>
      <trkpt lat="42.77888" lon="0.11309">
        <ele>2672</ele>
        <time>2022-02-24T09:34:08Z</time>
      </trkpt>
      <trkpt lat="42.77888" lon="0.1131">
        <ele>2672</ele>
        <time>2022-02-24T09:34:30Z</time>
      </trkpt>
      <trkpt lat="42.77886" lon="0.11312">
        <ele>2673</ele>
        <time>2022-02-24T09:34:49Z</time>
      </trkpt>
      <trkpt lat="42.77879" lon="0.11313">
        <ele>2671</ele>
        <time>2022-02-24T09:34:54Z</time>
      </trkpt>
      <trkpt lat="42.77865" lon="0.11309">
        <ele>2669</ele>
        <time>2022-02-24T09:35:08Z</time>
      </trkpt>
      <trkpt lat="42.77864" lon="0.11308">
        <ele>2669</ele>
        <time>2022-02-24T09:35:09Z</time>
      </trkpt>
      <trkpt lat="42.77859" lon="0.11304">
        <ele>2668</ele>
        <time>2022-02-24T09:35:21Z</time>
      </trkpt>
      <trkpt lat="42.77854" lon="0.11304">
        <ele>2670</ele>
        <time>2022-02-24T09:35:34Z</time>
      </trkpt>
      <trkpt lat="42.77854" lon="0.11303">
        <ele>2669</ele>
        <time>2022-02-24T09:35:36Z</time>
      </trkpt>
      <trkpt lat="42.77857" lon="0.11302">
        <ele>2667</ele>
        <time>2022-02-24T09:35:39Z</time>
      </trkpt>
      <trkpt lat="42.77865" lon="0.11306">
        <ele>2669</ele>
        <time>2022-02-24T09:35:52Z</time>
      </trkpt>
      <trkpt lat="42.77867" lon="0.11309">
        <ele>2669</ele>
        <time>2022-02-24T09:36:10Z</time>
      </trkpt>
      <trkpt lat="42.7787" lon="0.11306">
        <ele>2669</ele>
        <time>2022-02-24T09:36:28Z</time>
      </trkpt>
      <trkpt lat="42.7787" lon="0.11306">
        <ele>2669</ele>
        <time>2022-02-24T09:36:41Z</time>
      </trkpt>
      <trkpt lat="42.77867" lon="0.11312">
        <ele>2668</ele>
        <time>2022-02-24T09:37:02Z</time>
      </trkpt>
      <trkpt lat="42.77867" lon="0.1131">
        <ele>2668</ele>
        <time>2022-02-24T09:37:41Z</time>
      </trkpt>
      <trkpt lat="42.77869" lon="0.11311">
        <ele>2669</ele>
        <time>2022-02-24T09:38:08Z</time>
      </trkpt>
      <trkpt lat="42.77866" lon="0.1131">
        <ele>2669</ele>
        <time>2022-02-24T09:38:24Z</time>
      </trkpt>
      <trkpt lat="42.77864" lon="0.11315">
        <ele>2669</ele>
        <time>2022-02-24T09:38:43Z</time>
      </trkpt>
      <trkpt lat="42.77851" lon="0.11308">
        <ele>2670</ele>
        <time>2022-02-24T09:38:56Z</time>
      </trkpt>
      <trkpt lat="42.77845" lon="0.11302">
        <ele>2672</ele>
        <time>2022-02-24T09:39:09Z</time>
      </trkpt>
      <trkpt lat="42.77839" lon="0.11303">
        <ele>2675</ele>
        <time>2022-02-24T09:39:23Z</time>
      </trkpt>
      <trkpt lat="42.77835" lon="0.11298">
        <ele>2676</ele>
        <time>2022-02-24T09:39:37Z</time>
      </trkpt>
      <trkpt lat="42.77829" lon="0.11302">
        <ele>2680</ele>
        <time>2022-02-24T09:39:54Z</time>
      </trkpt>
      <trkpt lat="42.77825" lon="0.11297">
        <ele>2682</ele>
        <time>2022-02-24T09:40:10Z</time>
      </trkpt>
      <trkpt lat="42.77821" lon="0.11297">
        <ele>2684</ele>
        <time>2022-02-24T09:40:23Z</time>
      </trkpt>
      <trkpt lat="42.7782" lon="0.11293">
        <ele>2685</ele>
        <time>2022-02-24T09:40:49Z</time>
      </trkpt>
      <trkpt lat="42.77812" lon="0.11292">
        <ele>2687</ele>
        <time>2022-02-24T09:41:05Z</time>
      </trkpt>
      <trkpt lat="42.77805" lon="0.1129">
        <ele>2690</ele>
        <time>2022-02-24T09:41:22Z</time>
      </trkpt>
      <trkpt lat="42.778" lon="0.11289">
        <ele>2692</ele>
        <time>2022-02-24T09:41:39Z</time>
      </trkpt>
      <trkpt lat="42.77796" lon="0.11291">
        <ele>2694</ele>
        <time>2022-02-24T09:41:54Z</time>
      </trkpt>
      <trkpt lat="42.77794" lon="0.1129">
        <ele>2697</ele>
        <time>2022-02-24T09:42:08Z</time>
      </trkpt>
      <trkpt lat="42.77793" lon="0.11286">
        <ele>2698</ele>
        <time>2022-02-24T09:42:26Z</time>
      </trkpt>
      <trkpt lat="42.77791" lon="0.11286">
        <ele>2699</ele>
        <time>2022-02-24T09:42:39Z</time>
      </trkpt>
      <trkpt lat="42.77787" lon="0.11291">
        <ele>2700</ele>
        <time>2022-02-24T09:42:55Z</time>
      </trkpt>
      <trkpt lat="42.77784" lon="0.11299">
        <ele>2703</ele>
        <time>2022-02-24T09:43:10Z</time>
      </trkpt>
      <trkpt lat="42.77779" lon="0.11308">
        <ele>2705</ele>
        <time>2022-02-24T09:43:25Z</time>
      </trkpt>
      <trkpt lat="42.77774" lon="0.11317">
        <ele>2708</ele>
        <time>2022-02-24T09:43:41Z</time>
      </trkpt>
      <trkpt lat="42.77766" lon="0.11323">
        <ele>2709</ele>
        <time>2022-02-24T09:43:57Z</time>
      </trkpt>
      <trkpt lat="42.77759" lon="0.11332">
        <ele>2710</ele>
        <time>2022-02-24T09:44:13Z</time>
      </trkpt>
      <trkpt lat="42.77752" lon="0.11338">
        <ele>2712</ele>
        <time>2022-02-24T09:44:27Z</time>
      </trkpt>
      <trkpt lat="42.77749" lon="0.11343">
        <ele>2713</ele>
        <time>2022-02-24T09:44:40Z</time>
      </trkpt>
      <trkpt lat="42.77747" lon="0.11346">
        <ele>2714</ele>
        <time>2022-02-24T09:44:55Z</time>
      </trkpt>
      <trkpt lat="42.77744" lon="0.11347">
        <ele>2714</ele>
        <time>2022-02-24T09:45:13Z</time>
      </trkpt>
      <trkpt lat="42.77744" lon="0.11348">
        <ele>2714</ele>
        <time>2022-02-24T09:45:31Z</time>
      </trkpt>
      <trkpt lat="42.77746" lon="0.11346">
        <ele>2714</ele>
        <time>2022-02-24T09:45:51Z</time>
      </trkpt>
      <trkpt lat="42.77747" lon="0.11343">
        <ele>2714</ele>
        <time>2022-02-24T09:46:08Z</time>
      </trkpt>
      <trkpt lat="42.77747" lon="0.11342">
        <ele>2713</ele>
        <time>2022-02-24T09:46:29Z</time>
      </trkpt>
      <trkpt lat="42.77746" lon="0.11346">
        <ele>2714</ele>
        <time>2022-02-24T09:46:56Z</time>
      </trkpt>
      <trkpt lat="42.77746" lon="0.11346">
        <ele>2714</ele>
        <time>2022-02-24T09:47:13Z</time>
      </trkpt>
      <trkpt lat="42.77744" lon="0.11347">
        <ele>2714</ele>
        <time>2022-02-24T09:47:28Z</time>
      </trkpt>
      <trkpt lat="42.77744" lon="0.11347">
        <ele>2715</ele>
        <time>2022-02-24T09:47:51Z</time>
      </trkpt>
      <trkpt lat="42.77744" lon="0.11347">
        <ele>2714</ele>
        <time>2022-02-24T09:48:10Z</time>
      </trkpt>
      <trkpt lat="42.77748" lon="0.11343">
        <ele>2715</ele>
        <time>2022-02-24T09:48:29Z</time>
      </trkpt>
      <trkpt lat="42.77746" lon="0.11344">
        <ele>2715</ele>
        <time>2022-02-24T09:48:47Z</time>
      </trkpt>
      <trkpt lat="42.77745" lon="0.11344">
        <ele>2715</ele>
        <time>2022-02-24T09:49:07Z</time>
      </trkpt>
      <trkpt lat="42.77747" lon="0.11342">
        <ele>2714</ele>
        <time>2022-02-24T09:49:31Z</time>
      </trkpt>
      <trkpt lat="42.7775" lon="0.11339">
        <ele>2715</ele>
        <time>2022-02-24T09:49:50Z</time>
      </trkpt>
      <trkpt lat="42.77749" lon="0.11343">
        <ele>2715</ele>
        <time>2022-02-24T09:50:17Z</time>
      </trkpt>
      <trkpt lat="42.77752" lon="0.11343">
        <ele>2715</ele>
        <time>2022-02-24T09:50:46Z</time>
      </trkpt>
      <trkpt lat="42.77758" lon="0.11344">
        <ele>2716</ele>
        <time>2022-02-24T09:51:13Z</time>
      </trkpt>
      <trkpt lat="42.7775" lon="0.11345">
        <ele>2716</ele>
        <time>2022-02-24T09:51:34Z</time>
      </trkpt>
      <trkpt lat="42.77749" lon="0.11343">
        <ele>2716</ele>
        <time>2022-02-24T09:51:50Z</time>
      </trkpt>
      <trkpt lat="42.77749" lon="0.11342">
        <ele>2716</ele>
        <time>2022-02-24T09:51:56Z</time>
      </trkpt>
      <trkpt lat="42.77751" lon="0.11341">
        <ele>2715</ele>
        <time>2022-02-24T09:52:14Z</time>
      </trkpt>
      <trkpt lat="42.77751" lon="0.11338">
        <ele>2715</ele>
        <time>2022-02-24T09:52:28Z</time>
      </trkpt>
      <trkpt lat="42.77759" lon="0.11331">
        <ele>2713</ele>
        <time>2022-02-24T09:52:41Z</time>
      </trkpt>
      <trkpt lat="42.77765" lon="0.11327">
        <ele>2712</ele>
        <time>2022-02-24T09:52:52Z</time>
      </trkpt>
      <trkpt lat="42.77776" lon="0.11318">
        <ele>2710</ele>
        <time>2022-02-24T09:53:10Z</time>
      </trkpt>
      <trkpt lat="42.77781" lon="0.11307">
        <ele>2708</ele>
        <time>2022-02-24T09:53:22Z</time>
      </trkpt>
      <trkpt lat="42.77785" lon="0.11298">
        <ele>2705</ele>
        <time>2022-02-24T09:53:35Z</time>
      </trkpt>
      <trkpt lat="42.77788" lon="0.11289">
        <ele>2704</ele>
        <time>2022-02-24T09:53:48Z</time>
      </trkpt>
      <trkpt lat="42.77794" lon="0.11286">
        <ele>2702</ele>
        <time>2022-02-24T09:54:02Z</time>
      </trkpt>
      <trkpt lat="42.77798" lon="0.11286">
        <ele>2700</ele>
        <time>2022-02-24T09:54:15Z</time>
      </trkpt>
      <trkpt lat="42.778" lon="0.11287">
        <ele>2698</ele>
        <time>2022-02-24T09:54:29Z</time>
      </trkpt>
      <trkpt lat="42.77801" lon="0.11286">
        <ele>2696</ele>
        <time>2022-02-24T09:54:45Z</time>
      </trkpt>
      <trkpt lat="42.77812" lon="0.11289">
        <ele>2692</ele>
        <time>2022-02-24T09:54:58Z</time>
      </trkpt>
      <trkpt lat="42.77819" lon="0.1129">
        <ele>2689</ele>
        <time>2022-02-24T09:55:06Z</time>
      </trkpt>
      <trkpt lat="42.77825" lon="0.11294">
        <ele>2687</ele>
        <time>2022-02-24T09:55:16Z</time>
      </trkpt>
      <trkpt lat="42.7783" lon="0.11295">
        <ele>2683</ele>
        <time>2022-02-24T09:55:28Z</time>
      </trkpt>
      <trkpt lat="42.77834" lon="0.11296">
        <ele>2680</ele>
        <time>2022-02-24T09:55:40Z</time>
      </trkpt>
      <trkpt lat="42.77839" lon="0.11294">
        <ele>2677</ele>
        <time>2022-02-24T09:55:50Z</time>
      </trkpt>
      <trkpt lat="42.77844" lon="0.11294">
        <ele>2675</ele>
        <time>2022-02-24T09:55:58Z</time>
      </trkpt>
      <trkpt lat="42.77847" lon="0.11298">
        <ele>2673</ele>
        <time>2022-02-24T09:56:02Z</time>
      </trkpt>
      <trkpt lat="42.77855" lon="0.11301">
        <ele>2671</ele>
        <time>2022-02-24T09:56:09Z</time>
      </trkpt>
      <trkpt lat="42.77864" lon="0.11299">
        <ele>2671</ele>
        <time>2022-02-24T09:56:16Z</time>
      </trkpt>
      <trkpt lat="42.77877" lon="0.11304">
        <ele>2672</ele>
        <time>2022-02-24T09:56:32Z</time>
      </trkpt>
      <trkpt lat="42.77885" lon="0.11307">
        <ele>2674</ele>
        <time>2022-02-24T09:56:50Z</time>
      </trkpt>
      <trkpt lat="42.77885" lon="0.11312">
        <ele>2675</ele>
        <time>2022-02-24T09:57:07Z</time>
      </trkpt>
      <trkpt lat="42.77887" lon="0.1131">
        <ele>2674</ele>
        <time>2022-02-24T09:57:16Z</time>
      </trkpt>
      <trkpt lat="42.77886" lon="0.11311">
        <ele>2674</ele>
        <time>2022-02-24T09:57:30Z</time>
      </trkpt>
      <trkpt lat="42.77883" lon="0.11312">
        <ele>2673</ele>
        <time>2022-02-24T09:57:57Z</time>
      </trkpt>
      <trkpt lat="42.77884" lon="0.11312">
        <ele>2673</ele>
        <time>2022-02-24T09:58:21Z</time>
      </trkpt>
      <trkpt lat="42.77885" lon="0.11307">
        <ele>2673</ele>
        <time>2022-02-24T09:58:58Z</time>
      </trkpt>
      <trkpt lat="42.77885" lon="0.11308">
        <ele>2674</ele>
        <time>2022-02-24T09:59:47Z</time>
      </trkpt>
      <trkpt lat="42.77881" lon="0.11308">
        <ele>2673</ele>
        <time>2022-02-24T10:00:22Z</time>
      </trkpt>
      <trkpt lat="42.77882" lon="0.11307">
        <ele>2674</ele>
        <time>2022-02-24T10:01:02Z</time>
      </trkpt>
      <trkpt lat="42.77883" lon="0.11311">
        <ele>2674</ele>
        <time>2022-02-24T10:01:37Z</time>
      </trkpt>
      <trkpt lat="42.77882" lon="0.11312">
        <ele>2673</ele>
        <time>2022-02-24T10:02:12Z</time>
      </trkpt>
      <trkpt lat="42.77882" lon="0.11304">
        <ele>2674</ele>
        <time>2022-02-24T10:02:54Z</time>
      </trkpt>
      <trkpt lat="42.77886" lon="0.11308">
        <ele>2673</ele>
        <time>2022-02-24T10:03:31Z</time>
      </trkpt>
      <trkpt lat="42.77879" lon="0.11311">
        <ele>2673</ele>
        <time>2022-02-24T10:04:11Z</time>
      </trkpt>
      <trkpt lat="42.77874" lon="0.11312">
        <ele>2674</ele>
        <time>2022-02-24T10:04:50Z</time>
      </trkpt>
      <trkpt lat="42.77874" lon="0.11312">
        <ele>2674</ele>
        <time>2022-02-24T10:05:27Z</time>
      </trkpt>
      <trkpt lat="42.77878" lon="0.11308">
        <ele>2674</ele>
        <time>2022-02-24T10:05:56Z</time>
      </trkpt>
      <trkpt lat="42.7788" lon="0.1131">
        <ele>2674</ele>
        <time>2022-02-24T10:06:24Z</time>
      </trkpt>
      <trkpt lat="42.77881" lon="0.11311">
        <ele>2674</ele>
        <time>2022-02-24T10:07:03Z</time>
      </trkpt>
      <trkpt lat="42.77882" lon="0.11309">
        <ele>2675</ele>
        <time>2022-02-24T10:07:47Z</time>
      </trkpt>
      <trkpt lat="42.77883" lon="0.11307">
        <ele>2676</ele>
        <time>2022-02-24T10:08:11Z</time>
      </trkpt>
      <trkpt lat="42.77887" lon="0.11308">
        <ele>2675</ele>
        <time>2022-02-24T10:08:29Z</time>
      </trkpt>
      <trkpt lat="42.77884" lon="0.1131">
        <ele>2675</ele>
        <time>2022-02-24T10:08:45Z</time>
      </trkpt>
      <trkpt lat="42.77883" lon="0.11313">
        <ele>2676</ele>
        <time>2022-02-24T10:09:02Z</time>
      </trkpt>
      <trkpt lat="42.77883" lon="0.11312">
        <ele>2675</ele>
        <time>2022-02-24T10:09:20Z</time>
      </trkpt>
      <trkpt lat="42.77884" lon="0.11313">
        <ele>2676</ele>
        <time>2022-02-24T10:09:45Z</time>
      </trkpt>
      <trkpt lat="42.77881" lon="0.11312">
        <ele>2676</ele>
        <time>2022-02-24T10:10:04Z</time>
      </trkpt>
      <trkpt lat="42.77881" lon="0.11312">
        <ele>2676</ele>
        <time>2022-02-24T10:10:26Z</time>
      </trkpt>
      <trkpt lat="42.77881" lon="0.11312">
        <ele>2676</ele>
        <time>2022-02-24T10:10:54Z</time>
      </trkpt>
      <trkpt lat="42.77879" lon="0.11311">
        <ele>2675</ele>
        <time>2022-02-24T10:11:07Z</time>
      </trkpt>
      <trkpt lat="42.77878" lon="0.11311">
        <ele>2675</ele>
        <time>2022-02-24T10:11:14Z</time>
      </trkpt>
      <trkpt lat="42.77855" lon="0.11309">
        <ele>2673</ele>
        <time>2022-02-24T10:11:26Z</time>
      </trkpt>
      <trkpt lat="42.77858" lon="0.11307">
        <ele>2674</ele>
        <time>2022-02-24T10:11:37Z</time>
      </trkpt>
      <trkpt lat="42.77865" lon="0.11307">
        <ele>2674</ele>
        <time>2022-02-24T10:11:50Z</time>
      </trkpt>
      <trkpt lat="42.77866" lon="0.11307">
        <ele>2675</ele>
        <time>2022-02-24T10:11:52Z</time>
      </trkpt>
      <trkpt lat="42.77867" lon="0.11309">
        <ele>2674</ele>
        <time>2022-02-24T10:11:54Z</time>
      </trkpt>
      <trkpt lat="42.77882" lon="0.11322">
        <ele>2669</ele>
        <time>2022-02-24T10:11:58Z</time>
      </trkpt>
      <trkpt lat="42.77902" lon="0.11342">
        <ele>2667</ele>
        <time>2022-02-24T10:12:04Z</time>
      </trkpt>
      <trkpt lat="42.77887" lon="0.11355">
        <ele>2662</ele>
        <time>2022-02-24T10:12:08Z</time>
      </trkpt>
      <trkpt lat="42.77879" lon="0.11365">
        <ele>2656</ele>
        <time>2022-02-24T10:12:11Z</time>
      </trkpt>
      <trkpt lat="42.77875" lon="0.11369">
        <ele>2653</ele>
        <time>2022-02-24T10:12:12Z</time>
      </trkpt>
      <trkpt lat="42.7787" lon="0.11382">
        <ele>2650</ele>
        <time>2022-02-24T10:12:14Z</time>
      </trkpt>
      <trkpt lat="42.7786" lon="0.11398">
        <ele>2643</ele>
        <time>2022-02-24T10:12:17Z</time>
      </trkpt>
      <trkpt lat="42.77858" lon="0.1141">
        <ele>2639</ele>
        <time>2022-02-24T10:12:19Z</time>
      </trkpt>
      <trkpt lat="42.77852" lon="0.11421">
        <ele>2635</ele>
        <time>2022-02-24T10:12:21Z</time>
      </trkpt>
      <trkpt lat="42.77841" lon="0.11444">
        <ele>2629</ele>
        <time>2022-02-24T10:12:25Z</time>
      </trkpt>
      <trkpt lat="42.77835" lon="0.11458">
        <ele>2624</ele>
        <time>2022-02-24T10:12:27Z</time>
      </trkpt>
      <trkpt lat="42.77832" lon="0.11464">
        <ele>2621</ele>
        <time>2022-02-24T10:12:28Z</time>
      </trkpt>
      <trkpt lat="42.77828" lon="0.11471">
        <ele>2621</ele>
        <time>2022-02-24T10:12:29Z</time>
      </trkpt>
      <trkpt lat="42.77828" lon="0.11487">
        <ele>2617</ele>
        <time>2022-02-24T10:12:31Z</time>
      </trkpt>
      <trkpt lat="42.77822" lon="0.11499">
        <ele>2612</ele>
        <time>2022-02-24T10:12:33Z</time>
      </trkpt>
      <trkpt lat="42.77812" lon="0.1153">
        <ele>2606</ele>
        <time>2022-02-24T10:12:37Z</time>
      </trkpt>
      <trkpt lat="42.77812" lon="0.11541">
        <ele>2605</ele>
        <time>2022-02-24T10:12:38Z</time>
      </trkpt>
      <trkpt lat="42.77823" lon="0.11556">
        <ele>2606</ele>
        <time>2022-02-24T10:12:44Z</time>
      </trkpt>
      <trkpt lat="42.77835" lon="0.11543">
        <ele>2606</ele>
        <time>2022-02-24T10:13:07Z</time>
      </trkpt>
      <trkpt lat="42.77841" lon="0.11566">
        <ele>2603</ele>
        <time>2022-02-24T10:13:16Z</time>
      </trkpt>
      <trkpt lat="42.77843" lon="0.11571">
        <ele>2602</ele>
        <time>2022-02-24T10:13:17Z</time>
      </trkpt>
      <trkpt lat="42.77855" lon="0.11598">
        <ele>2599</ele>
        <time>2022-02-24T10:13:22Z</time>
      </trkpt>
      <trkpt lat="42.77876" lon="0.11641">
        <ele>2596</ele>
        <time>2022-02-24T10:13:32Z</time>
      </trkpt>
      <trkpt lat="42.7788" lon="0.11648">
        <ele>2595</ele>
        <time>2022-02-24T10:13:34Z</time>
      </trkpt>
      <trkpt lat="42.77898" lon="0.11683">
        <ele>2592</ele>
        <time>2022-02-24T10:13:45Z</time>
      </trkpt>
      <trkpt lat="42.77899" lon="0.11685">
        <ele>2592</ele>
        <time>2022-02-24T10:13:46Z</time>
      </trkpt>
      <trkpt lat="42.77891" lon="0.11699">
        <ele>2588</ele>
        <time>2022-02-24T10:13:49Z</time>
      </trkpt>
      <trkpt lat="42.77882" lon="0.11706">
        <ele>2585</ele>
        <time>2022-02-24T10:13:51Z</time>
      </trkpt>
      <trkpt lat="42.77881" lon="0.11721">
        <ele>2579</ele>
        <time>2022-02-24T10:13:53Z</time>
      </trkpt>
      <trkpt lat="42.77884" lon="0.11738">
        <ele>2577</ele>
        <time>2022-02-24T10:13:55Z</time>
      </trkpt>
      <trkpt lat="42.77909" lon="0.1178">
        <ele>2574</ele>
        <time>2022-02-24T10:14:05Z</time>
      </trkpt>
      <trkpt lat="42.77908" lon="0.11792">
        <ele>2570</ele>
        <time>2022-02-24T10:14:08Z</time>
      </trkpt>
      <trkpt lat="42.77901" lon="0.118">
        <ele>2566</ele>
        <time>2022-02-24T10:14:10Z</time>
      </trkpt>
      <trkpt lat="42.77901" lon="0.11812">
        <ele>2562</ele>
        <time>2022-02-24T10:14:12Z</time>
      </trkpt>
      <trkpt lat="42.77895" lon="0.1182">
        <ele>2558</ele>
        <time>2022-02-24T10:14:14Z</time>
      </trkpt>
      <trkpt lat="42.77887" lon="0.11826">
        <ele>2553</ele>
        <time>2022-02-24T10:14:16Z</time>
      </trkpt>
      <trkpt lat="42.77889" lon="0.11841">
        <ele>2550</ele>
        <time>2022-02-24T10:14:18Z</time>
      </trkpt>
      <trkpt lat="42.7789" lon="0.11863">
        <ele>2544</ele>
        <time>2022-02-24T10:14:22Z</time>
      </trkpt>
      <trkpt lat="42.77876" lon="0.11868">
        <ele>2538</ele>
        <time>2022-02-24T10:14:25Z</time>
      </trkpt>
      <trkpt lat="42.77878" lon="0.11892">
        <ele>2534</ele>
        <time>2022-02-24T10:14:28Z</time>
      </trkpt>
      <trkpt lat="42.77884" lon="0.11915">
        <ele>2533</ele>
        <time>2022-02-24T10:14:31Z</time>
      </trkpt>
      <trkpt lat="42.77892" lon="0.11942">
        <ele>2530</ele>
        <time>2022-02-24T10:14:38Z</time>
      </trkpt>
      <trkpt lat="42.77896" lon="0.11936">
        <ele>2530</ele>
        <time>2022-02-24T10:14:50Z</time>
      </trkpt>
      <trkpt lat="42.77898" lon="0.11935">
        <ele>2530</ele>
        <time>2022-02-24T10:15:01Z</time>
      </trkpt>
      <trkpt lat="42.77903" lon="0.1195">
        <ele>2529</ele>
        <time>2022-02-24T10:15:11Z</time>
      </trkpt>
      <trkpt lat="42.77906" lon="0.11946">
        <ele>2529</ele>
        <time>2022-02-24T10:15:28Z</time>
      </trkpt>
      <trkpt lat="42.77906" lon="0.11947">
        <ele>2529</ele>
        <time>2022-02-24T10:15:50Z</time>
      </trkpt>
      <trkpt lat="42.77907" lon="0.11946">
        <ele>2528</ele>
        <time>2022-02-24T10:16:06Z</time>
      </trkpt>
      <trkpt lat="42.77913" lon="0.11965">
        <ele>2525</ele>
        <time>2022-02-24T10:16:12Z</time>
      </trkpt>
      <trkpt lat="42.77902" lon="0.11975">
        <ele>2520</ele>
        <time>2022-02-24T10:16:15Z</time>
      </trkpt>
      <trkpt lat="42.779" lon="0.11984">
        <ele>2516</ele>
        <time>2022-02-24T10:16:17Z</time>
      </trkpt>
      <trkpt lat="42.77893" lon="0.11993">
        <ele>2513</ele>
        <time>2022-02-24T10:16:19Z</time>
      </trkpt>
      <trkpt lat="42.77888" lon="0.12003">
        <ele>2508</ele>
        <time>2022-02-24T10:16:22Z</time>
      </trkpt>
      <trkpt lat="42.77893" lon="0.12018">
        <ele>2505</ele>
        <time>2022-02-24T10:16:25Z</time>
      </trkpt>
      <trkpt lat="42.77893" lon="0.12026">
        <ele>2504</ele>
        <time>2022-02-24T10:16:27Z</time>
      </trkpt>
      <trkpt lat="42.77887" lon="0.12028">
        <ele>2500</ele>
        <time>2022-02-24T10:16:29Z</time>
      </trkpt>
      <trkpt lat="42.77878" lon="0.12026">
        <ele>2497</ele>
        <time>2022-02-24T10:16:32Z</time>
      </trkpt>
      <trkpt lat="42.77877" lon="0.12033">
        <ele>2494</ele>
        <time>2022-02-24T10:16:34Z</time>
      </trkpt>
      <trkpt lat="42.77883" lon="0.12038">
        <ele>2493</ele>
        <time>2022-02-24T10:16:41Z</time>
      </trkpt>
      <trkpt lat="42.77893" lon="0.12033">
        <ele>2494</ele>
        <time>2022-02-24T10:17:07Z</time>
      </trkpt>
      <trkpt lat="42.77892" lon="0.12035">
        <ele>2493</ele>
        <time>2022-02-24T10:17:23Z</time>
      </trkpt>
      <trkpt lat="42.77892" lon="0.12034">
        <ele>2493</ele>
        <time>2022-02-24T10:17:28Z</time>
      </trkpt>
      <trkpt lat="42.77903" lon="0.12046">
        <ele>2489</ele>
        <time>2022-02-24T10:17:35Z</time>
      </trkpt>
      <trkpt lat="42.77895" lon="0.12055">
        <ele>2486</ele>
        <time>2022-02-24T10:17:38Z</time>
      </trkpt>
      <trkpt lat="42.77889" lon="0.12062">
        <ele>2481</ele>
        <time>2022-02-24T10:17:42Z</time>
      </trkpt>
      <trkpt lat="42.7789" lon="0.12063">
        <ele>2479</ele>
        <time>2022-02-24T10:17:43Z</time>
      </trkpt>
      <trkpt lat="42.77882" lon="0.12069">
        <ele>2476</ele>
        <time>2022-02-24T10:17:49Z</time>
      </trkpt>
      <trkpt lat="42.7788" lon="0.12076">
        <ele>2472</ele>
        <time>2022-02-24T10:17:51Z</time>
      </trkpt>
      <trkpt lat="42.77879" lon="0.12082">
        <ele>2471</ele>
        <time>2022-02-24T10:17:52Z</time>
      </trkpt>
      <trkpt lat="42.7789" lon="0.12102">
        <ele>2468</ele>
        <time>2022-02-24T10:17:55Z</time>
      </trkpt>
      <trkpt lat="42.77894" lon="0.12116">
        <ele>2464</ele>
        <time>2022-02-24T10:17:58Z</time>
      </trkpt>
      <trkpt lat="42.77889" lon="0.12126">
        <ele>2460</ele>
        <time>2022-02-24T10:18:00Z</time>
      </trkpt>
      <trkpt lat="42.77888" lon="0.12132">
        <ele>2458</ele>
        <time>2022-02-24T10:18:01Z</time>
      </trkpt>
      <trkpt lat="42.779" lon="0.12154">
        <ele>2454</ele>
        <time>2022-02-24T10:18:08Z</time>
      </trkpt>
      <trkpt lat="42.77912" lon="0.12185">
        <ele>2451</ele>
        <time>2022-02-24T10:18:13Z</time>
      </trkpt>
      <trkpt lat="42.77914" lon="0.12191">
        <ele>2451</ele>
        <time>2022-02-24T10:18:14Z</time>
      </trkpt>
      <trkpt lat="42.77927" lon="0.12222">
        <ele>2449</ele>
        <time>2022-02-24T10:18:24Z</time>
      </trkpt>
      <trkpt lat="42.77931" lon="0.12231">
        <ele>2446</ele>
        <time>2022-02-24T10:18:27Z</time>
      </trkpt>
      <trkpt lat="42.77932" lon="0.12233">
        <ele>2446</ele>
        <time>2022-02-24T10:18:28Z</time>
      </trkpt>
      <trkpt lat="42.77934" lon="0.12231">
        <ele>2446</ele>
        <time>2022-02-24T10:18:41Z</time>
      </trkpt>
      <trkpt lat="42.77937" lon="0.12234">
        <ele>2443</ele>
        <time>2022-02-24T10:19:05Z</time>
      </trkpt>
      <trkpt lat="42.77928" lon="0.12244">
        <ele>2440</ele>
        <time>2022-02-24T10:19:09Z</time>
      </trkpt>
      <trkpt lat="42.77927" lon="0.12251">
        <ele>2437</ele>
        <time>2022-02-24T10:19:11Z</time>
      </trkpt>
      <trkpt lat="42.77923" lon="0.12259">
        <ele>2434</ele>
        <time>2022-02-24T10:19:13Z</time>
      </trkpt>
      <trkpt lat="42.77921" lon="0.1227">
        <ele>2426</ele>
        <time>2022-02-24T10:19:17Z</time>
      </trkpt>
      <trkpt lat="42.77927" lon="0.12282">
        <ele>2423</ele>
        <time>2022-02-24T10:19:21Z</time>
      </trkpt>
      <trkpt lat="42.77921" lon="0.12294">
        <ele>2417</ele>
        <time>2022-02-24T10:19:24Z</time>
      </trkpt>
      <trkpt lat="42.77912" lon="0.12296">
        <ele>2414</ele>
        <time>2022-02-24T10:19:27Z</time>
      </trkpt>
      <trkpt lat="42.77921" lon="0.12303">
        <ele>2410</ele>
        <time>2022-02-24T10:19:30Z</time>
      </trkpt>
      <trkpt lat="42.77927" lon="0.12312">
        <ele>2406</ele>
        <time>2022-02-24T10:19:33Z</time>
      </trkpt>
      <trkpt lat="42.77919" lon="0.12319">
        <ele>2400</ele>
        <time>2022-02-24T10:19:36Z</time>
      </trkpt>
      <trkpt lat="42.77915" lon="0.1233">
        <ele>2395</ele>
        <time>2022-02-24T10:19:39Z</time>
      </trkpt>
      <trkpt lat="42.77911" lon="0.12339">
        <ele>2389</ele>
        <time>2022-02-24T10:19:41Z</time>
      </trkpt>
      <trkpt lat="42.77903" lon="0.12339">
        <ele>2386</ele>
        <time>2022-02-24T10:19:43Z</time>
      </trkpt>
      <trkpt lat="42.77902" lon="0.12337">
        <ele>2385</ele>
        <time>2022-02-24T10:19:44Z</time>
      </trkpt>
      <trkpt lat="42.77904" lon="0.12327">
        <ele>2386</ele>
        <time>2022-02-24T10:19:55Z</time>
      </trkpt>
      <trkpt lat="42.77903" lon="0.12325">
        <ele>2386</ele>
        <time>2022-02-24T10:20:01Z</time>
      </trkpt>
      <trkpt lat="42.77891" lon="0.12325">
        <ele>2382</ele>
        <time>2022-02-24T10:20:06Z</time>
      </trkpt>
      <trkpt lat="42.77884" lon="0.12328">
        <ele>2380</ele>
        <time>2022-02-24T10:20:08Z</time>
      </trkpt>
      <trkpt lat="42.77877" lon="0.12331">
        <ele>2379</ele>
        <time>2022-02-24T10:20:10Z</time>
      </trkpt>
      <trkpt lat="42.77861" lon="0.1234">
        <ele>2376</ele>
        <time>2022-02-24T10:20:16Z</time>
      </trkpt>
      <trkpt lat="42.77862" lon="0.12355">
        <ele>2373</ele>
        <time>2022-02-24T10:20:19Z</time>
      </trkpt>
      <trkpt lat="42.77868" lon="0.12364">
        <ele>2370</ele>
        <time>2022-02-24T10:20:21Z</time>
      </trkpt>
      <trkpt lat="42.77888" lon="0.12366">
        <ele>2369</ele>
        <time>2022-02-24T10:20:31Z</time>
      </trkpt>
      <trkpt lat="42.77904" lon="0.12374">
        <ele>2368</ele>
        <time>2022-02-24T10:20:46Z</time>
      </trkpt>
      <trkpt lat="42.77921" lon="0.12382">
        <ele>2365</ele>
        <time>2022-02-24T10:20:50Z</time>
      </trkpt>
      <trkpt lat="42.77934" lon="0.12389">
        <ele>2364</ele>
        <time>2022-02-24T10:20:53Z</time>
      </trkpt>
      <trkpt lat="42.77946" lon="0.12397">
        <ele>2363</ele>
        <time>2022-02-24T10:20:56Z</time>
      </trkpt>
      <trkpt lat="42.77964" lon="0.12407">
        <ele>2359</ele>
        <time>2022-02-24T10:21:02Z</time>
      </trkpt>
      <trkpt lat="42.77979" lon="0.12414">
        <ele>2356</ele>
        <time>2022-02-24T10:21:07Z</time>
      </trkpt>
      <trkpt lat="42.77986" lon="0.12421">
        <ele>2352</ele>
        <time>2022-02-24T10:21:11Z</time>
      </trkpt>
      <trkpt lat="42.77986" lon="0.12428">
        <ele>2348</ele>
        <time>2022-02-24T10:21:13Z</time>
      </trkpt>
      <trkpt lat="42.77992" lon="0.12434">
        <ele>2345</ele>
        <time>2022-02-24T10:21:17Z</time>
      </trkpt>
      <trkpt lat="42.77993" lon="0.12446">
        <ele>2340</ele>
        <time>2022-02-24T10:21:21Z</time>
      </trkpt>
      <trkpt lat="42.77982" lon="0.12456">
        <ele>2336</ele>
        <time>2022-02-24T10:21:23Z</time>
      </trkpt>
      <trkpt lat="42.77971" lon="0.12461">
        <ele>2335</ele>
        <time>2022-02-24T10:21:26Z</time>
      </trkpt>
      <trkpt lat="42.77968" lon="0.1246">
        <ele>2334</ele>
        <time>2022-02-24T10:21:35Z</time>
      </trkpt>
      <trkpt lat="42.77967" lon="0.1246">
        <ele>2335</ele>
        <time>2022-02-24T10:21:41Z</time>
      </trkpt>
      <trkpt lat="42.7797" lon="0.1247">
        <ele>2331</ele>
        <time>2022-02-24T10:21:46Z</time>
      </trkpt>
      <trkpt lat="42.77974" lon="0.12473">
        <ele>2329</ele>
        <time>2022-02-24T10:21:48Z</time>
      </trkpt>
      <trkpt lat="42.77981" lon="0.12471">
        <ele>2327</ele>
        <time>2022-02-24T10:21:51Z</time>
      </trkpt>
      <trkpt lat="42.77987" lon="0.12478">
        <ele>2324</ele>
        <time>2022-02-24T10:21:54Z</time>
      </trkpt>
      <trkpt lat="42.77985" lon="0.12487">
        <ele>2321</ele>
        <time>2022-02-24T10:21:56Z</time>
      </trkpt>
      <trkpt lat="42.77977" lon="0.12494">
        <ele>2318</ele>
        <time>2022-02-24T10:21:58Z</time>
      </trkpt>
      <trkpt lat="42.77976" lon="0.12497">
        <ele>2318</ele>
        <time>2022-02-24T10:22:09Z</time>
      </trkpt>
      <trkpt lat="42.77976" lon="0.12506">
        <ele>2317</ele>
        <time>2022-02-24T10:22:12Z</time>
      </trkpt>
      <trkpt lat="42.7798" lon="0.12509">
        <ele>2314</ele>
        <time>2022-02-24T10:22:14Z</time>
      </trkpt>
      <trkpt lat="42.77983" lon="0.1251">
        <ele>2312</ele>
        <time>2022-02-24T10:22:16Z</time>
      </trkpt>
      <trkpt lat="42.77992" lon="0.12506">
        <ele>2311</ele>
        <time>2022-02-24T10:22:30Z</time>
      </trkpt>
      <trkpt lat="42.78004" lon="0.12503">
        <ele>2308</ele>
        <time>2022-02-24T10:22:34Z</time>
      </trkpt>
      <trkpt lat="42.78015" lon="0.12498">
        <ele>2306</ele>
        <time>2022-02-24T10:22:37Z</time>
      </trkpt>
      <trkpt lat="42.78024" lon="0.12505">
        <ele>2302</ele>
        <time>2022-02-24T10:22:40Z</time>
      </trkpt>
      <trkpt lat="42.78021" lon="0.12514">
        <ele>2298</ele>
        <time>2022-02-24T10:22:42Z</time>
      </trkpt>
      <trkpt lat="42.78021" lon="0.12518">
        <ele>2298</ele>
        <time>2022-02-24T10:22:43Z</time>
      </trkpt>
      <trkpt lat="42.78021" lon="0.12529">
        <ele>2292</ele>
        <time>2022-02-24T10:22:45Z</time>
      </trkpt>
      <trkpt lat="42.78019" lon="0.12535">
        <ele>2291</ele>
        <time>2022-02-24T10:22:47Z</time>
      </trkpt>
      <trkpt lat="42.7802" lon="0.12537">
        <ele>2290</ele>
        <time>2022-02-24T10:22:48Z</time>
      </trkpt>
      <trkpt lat="42.78017" lon="0.12544">
        <ele>2287</ele>
        <time>2022-02-24T10:22:50Z</time>
      </trkpt>
      <trkpt lat="42.78011" lon="0.12555">
        <ele>2285</ele>
        <time>2022-02-24T10:22:52Z</time>
      </trkpt>
      <trkpt lat="42.78007" lon="0.12562">
        <ele>2283</ele>
        <time>2022-02-24T10:22:53Z</time>
      </trkpt>
      <trkpt lat="42.78005" lon="0.12566">
        <ele>2281</ele>
        <time>2022-02-24T10:22:54Z</time>
      </trkpt>
      <trkpt lat="42.78005" lon="0.12574">
        <ele>2277</ele>
        <time>2022-02-24T10:22:57Z</time>
      </trkpt>
      <trkpt lat="42.78012" lon="0.12573">
        <ele>2277</ele>
        <time>2022-02-24T10:23:03Z</time>
      </trkpt>
      <trkpt lat="42.78053" lon="0.1259">
        <ele>2274</ele>
        <time>2022-02-24T10:23:12Z</time>
      </trkpt>
      <trkpt lat="42.78073" lon="0.12608">
        <ele>2272</ele>
        <time>2022-02-24T10:23:20Z</time>
      </trkpt>
      <trkpt lat="42.78086" lon="0.12604">
        <ele>2272</ele>
        <time>2022-02-24T10:23:39Z</time>
      </trkpt>
      <trkpt lat="42.78099" lon="0.12612">
        <ele>2270</ele>
        <time>2022-02-24T10:23:58Z</time>
      </trkpt>
      <trkpt lat="42.78104" lon="0.12614">
        <ele>2269</ele>
        <time>2022-02-24T10:24:00Z</time>
      </trkpt>
      <trkpt lat="42.78101" lon="0.12628">
        <ele>2267</ele>
        <time>2022-02-24T10:24:03Z</time>
      </trkpt>
      <trkpt lat="42.78083" lon="0.12635">
        <ele>2264</ele>
        <time>2022-02-24T10:24:07Z</time>
      </trkpt>
      <trkpt lat="42.78081" lon="0.12637">
        <ele>2263</ele>
        <time>2022-02-24T10:24:08Z</time>
      </trkpt>
      <trkpt lat="42.78081" lon="0.12656">
        <ele>2259</ele>
        <time>2022-02-24T10:24:11Z</time>
      </trkpt>
      <trkpt lat="42.7809" lon="0.1267">
        <ele>2255</ele>
        <time>2022-02-24T10:24:14Z</time>
      </trkpt>
      <trkpt lat="42.78091" lon="0.12684">
        <ele>2252</ele>
        <time>2022-02-24T10:24:19Z</time>
      </trkpt>
      <trkpt lat="42.78085" lon="0.12689">
        <ele>2251</ele>
        <time>2022-02-24T10:24:21Z</time>
      </trkpt>
      <trkpt lat="42.78089" lon="0.12704">
        <ele>2247</ele>
        <time>2022-02-24T10:24:25Z</time>
      </trkpt>
      <trkpt lat="42.78102" lon="0.12716">
        <ele>2245</ele>
        <time>2022-02-24T10:24:30Z</time>
      </trkpt>
      <trkpt lat="42.78107" lon="0.12709">
        <ele>2245</ele>
        <time>2022-02-24T10:24:43Z</time>
      </trkpt>
      <trkpt lat="42.78109" lon="0.12699">
        <ele>2245</ele>
        <time>2022-02-24T10:25:09Z</time>
      </trkpt>
      <trkpt lat="42.78108" lon="0.12678">
        <ele>2246</ele>
        <time>2022-02-24T10:25:32Z</time>
      </trkpt>
      <trkpt lat="42.78112" lon="0.12678">
        <ele>2245</ele>
        <time>2022-02-24T10:25:51Z</time>
      </trkpt>
      <trkpt lat="42.78113" lon="0.12678">
        <ele>2245</ele>
        <time>2022-02-24T10:26:12Z</time>
      </trkpt>
      <trkpt lat="42.78116" lon="0.12678">
        <ele>2245</ele>
        <time>2022-02-24T10:26:32Z</time>
      </trkpt>
      <trkpt lat="42.78116" lon="0.1268">
        <ele>2245</ele>
        <time>2022-02-24T10:26:49Z</time>
      </trkpt>
      <trkpt lat="42.78116" lon="0.12682">
        <ele>2244</ele>
        <time>2022-02-24T10:27:08Z</time>
      </trkpt>
      <trkpt lat="42.78118" lon="0.1268">
        <ele>2244</ele>
        <time>2022-02-24T10:27:42Z</time>
      </trkpt>
      <trkpt lat="42.78122" lon="0.12675">
        <ele>2243</ele>
        <time>2022-02-24T10:28:15Z</time>
      </trkpt>
      <trkpt lat="42.7812" lon="0.12676">
        <ele>2243</ele>
        <time>2022-02-24T10:28:36Z</time>
      </trkpt>
      <trkpt lat="42.78122" lon="0.12674">
        <ele>2243</ele>
        <time>2022-02-24T10:28:52Z</time>
      </trkpt>
      <trkpt lat="42.78121" lon="0.12676">
        <ele>2241</ele>
        <time>2022-02-24T10:29:17Z</time>
      </trkpt>
      <trkpt lat="42.78121" lon="0.12676">
        <ele>2244</ele>
        <time>2022-02-24T10:29:18Z</time>
      </trkpt>
      <trkpt lat="42.78121" lon="0.12684">
        <ele>2243</ele>
        <time>2022-02-24T10:29:48Z</time>
      </trkpt>
      <trkpt lat="42.78121" lon="0.12681">
        <ele>2242</ele>
        <time>2022-02-24T10:30:21Z</time>
      </trkpt>
      <trkpt lat="42.78118" lon="0.12681">
        <ele>2242</ele>
        <time>2022-02-24T10:30:56Z</time>
      </trkpt>
      <trkpt lat="42.7812" lon="0.12679">
        <ele>2242</ele>
        <time>2022-02-24T10:31:28Z</time>
      </trkpt>
      <trkpt lat="42.7812" lon="0.12675">
        <ele>2242</ele>
        <time>2022-02-24T10:32:02Z</time>
      </trkpt>
      <trkpt lat="42.78117" lon="0.12675">
        <ele>2242</ele>
        <time>2022-02-24T10:32:38Z</time>
      </trkpt>
      <trkpt lat="42.78116" lon="0.12678">
        <ele>2242</ele>
        <time>2022-02-24T10:33:07Z</time>
      </trkpt>
      <trkpt lat="42.78116" lon="0.12682">
        <ele>2242</ele>
        <time>2022-02-24T10:33:41Z</time>
      </trkpt>
      <trkpt lat="42.78115" lon="0.12683">
        <ele>2242</ele>
        <time>2022-02-24T10:34:10Z</time>
      </trkpt>
      <trkpt lat="42.78114" lon="0.12682">
        <ele>2242</ele>
        <time>2022-02-24T10:34:49Z</time>
      </trkpt>
      <trkpt lat="42.78111" lon="0.12683">
        <ele>2242</ele>
        <time>2022-02-24T10:35:27Z</time>
      </trkpt>
      <trkpt lat="42.78112" lon="0.12681">
        <ele>2242</ele>
        <time>2022-02-24T10:35:56Z</time>
      </trkpt>
      <trkpt lat="42.78113" lon="0.12677">
        <ele>2242</ele>
        <time>2022-02-24T10:36:21Z</time>
      </trkpt>
      <trkpt lat="42.78115" lon="0.12677">
        <ele>2242</ele>
        <time>2022-02-24T10:36:51Z</time>
      </trkpt>
      <trkpt lat="42.78114" lon="0.12676">
        <ele>2242</ele>
        <time>2022-02-24T10:37:03Z</time>
      </trkpt>
      <trkpt lat="42.78114" lon="0.12676">
        <ele>2241</ele>
        <time>2022-02-24T10:37:30Z</time>
      </trkpt>
      <trkpt lat="42.78114" lon="0.12675">
        <ele>2241</ele>
        <time>2022-02-24T10:38:08Z</time>
      </trkpt>
      <trkpt lat="42.78113" lon="0.1268">
        <ele>2242</ele>
        <time>2022-02-24T10:38:43Z</time>
      </trkpt>
      <trkpt lat="42.78113" lon="0.12679">
        <ele>2242</ele>
        <time>2022-02-24T10:39:20Z</time>
      </trkpt>
      <trkpt lat="42.78114" lon="0.12681">
        <ele>2241</ele>
        <time>2022-02-24T10:39:44Z</time>
      </trkpt>
      <trkpt lat="42.78116" lon="0.12682">
        <ele>2242</ele>
        <time>2022-02-24T10:40:21Z</time>
      </trkpt>
      <trkpt lat="42.78115" lon="0.12686">
        <ele>2241</ele>
        <time>2022-02-24T10:41:08Z</time>
      </trkpt>
      <trkpt lat="42.78115" lon="0.12685">
        <ele>2242</ele>
        <time>2022-02-24T10:41:49Z</time>
      </trkpt>
      <trkpt lat="42.78117" lon="0.12687">
        <ele>2242</ele>
        <time>2022-02-24T10:42:24Z</time>
      </trkpt>
      <trkpt lat="42.78114" lon="0.12686">
        <ele>2242</ele>
        <time>2022-02-24T10:43:07Z</time>
      </trkpt>
      <trkpt lat="42.78113" lon="0.12683">
        <ele>2241</ele>
        <time>2022-02-24T10:43:47Z</time>
      </trkpt>
      <trkpt lat="42.78114" lon="0.12686">
        <ele>2242</ele>
        <time>2022-02-24T10:44:30Z</time>
      </trkpt>
      <trkpt lat="42.78116" lon="0.12685">
        <ele>2243</ele>
        <time>2022-02-24T10:44:52Z</time>
      </trkpt>
      <trkpt lat="42.78115" lon="0.12688">
        <ele>2243</ele>
        <time>2022-02-24T10:45:04Z</time>
      </trkpt>
      <trkpt lat="42.78115" lon="0.12686">
        <ele>2243</ele>
        <time>2022-02-24T10:45:22Z</time>
      </trkpt>
      <trkpt lat="42.78115" lon="0.12686">
        <ele>2242</ele>
        <time>2022-02-24T10:45:33Z</time>
      </trkpt>
      <trkpt lat="42.78116" lon="0.12686">
        <ele>2242</ele>
        <time>2022-02-24T10:45:54Z</time>
      </trkpt>
      <trkpt lat="42.78116" lon="0.12685">
        <ele>2243</ele>
        <time>2022-02-24T10:46:09Z</time>
      </trkpt>
      <trkpt lat="42.78115" lon="0.12684">
        <ele>2243</ele>
        <time>2022-02-24T10:46:27Z</time>
      </trkpt>
      <trkpt lat="42.78114" lon="0.12683">
        <ele>2243</ele>
        <time>2022-02-24T10:46:55Z</time>
      </trkpt>
      <trkpt lat="42.78117" lon="0.1268">
        <ele>2243</ele>
        <time>2022-02-24T10:47:19Z</time>
      </trkpt>
      <trkpt lat="42.78119" lon="0.1268">
        <ele>2243</ele>
        <time>2022-02-24T10:47:34Z</time>
      </trkpt>
      <trkpt lat="42.7812" lon="0.1268">
        <ele>2243</ele>
        <time>2022-02-24T10:47:37Z</time>
      </trkpt>
      <trkpt lat="42.78142" lon="0.12687">
        <ele>2239</ele>
        <time>2022-02-24T10:47:43Z</time>
      </trkpt>
      <trkpt lat="42.78153" lon="0.12691">
        <ele>2238</ele>
        <time>2022-02-24T10:47:45Z</time>
      </trkpt>
      <trkpt lat="42.78167" lon="0.12701">
        <ele>2236</ele>
        <time>2022-02-24T10:47:48Z</time>
      </trkpt>
      <trkpt lat="42.78171" lon="0.12705">
        <ele>2236</ele>
        <time>2022-02-24T10:47:49Z</time>
      </trkpt>
      <trkpt lat="42.78186" lon="0.12721">
        <ele>2233</ele>
        <time>2022-02-24T10:47:54Z</time>
      </trkpt>
      <trkpt lat="42.78186" lon="0.12739">
        <ele>2228</ele>
        <time>2022-02-24T10:47:57Z</time>
      </trkpt>
      <trkpt lat="42.78186" lon="0.12744">
        <ele>2227</ele>
        <time>2022-02-24T10:47:58Z</time>
      </trkpt>
      <trkpt lat="42.78182" lon="0.12765">
        <ele>2220</ele>
        <time>2022-02-24T10:48:02Z</time>
      </trkpt>
      <trkpt lat="42.78181" lon="0.12769">
        <ele>2218</ele>
        <time>2022-02-24T10:48:03Z</time>
      </trkpt>
      <trkpt lat="42.78183" lon="0.12792">
        <ele>2213</ele>
        <time>2022-02-24T10:48:06Z</time>
      </trkpt>
      <trkpt lat="42.78174" lon="0.12799">
        <ele>2209</ele>
        <time>2022-02-24T10:48:08Z</time>
      </trkpt>
      <trkpt lat="42.78168" lon="0.12808">
        <ele>2206</ele>
        <time>2022-02-24T10:48:10Z</time>
      </trkpt>
      <trkpt lat="42.78169" lon="0.12821">
        <ele>2201</ele>
        <time>2022-02-24T10:48:12Z</time>
      </trkpt>
      <trkpt lat="42.7816" lon="0.12831">
        <ele>2197</ele>
        <time>2022-02-24T10:48:14Z</time>
      </trkpt>
      <trkpt lat="42.7814" lon="0.12831">
        <ele>2194</ele>
        <time>2022-02-24T10:48:18Z</time>
      </trkpt>
      <trkpt lat="42.78121" lon="0.12838">
        <ele>2191</ele>
        <time>2022-02-24T10:48:23Z</time>
      </trkpt>
      <trkpt lat="42.78126" lon="0.12849">
        <ele>2188</ele>
        <time>2022-02-24T10:48:27Z</time>
      </trkpt>
      <trkpt lat="42.78135" lon="0.12844">
        <ele>2189</ele>
        <time>2022-02-24T10:48:42Z</time>
      </trkpt>
      <trkpt lat="42.78137" lon="0.12844">
        <ele>2188</ele>
        <time>2022-02-24T10:49:04Z</time>
      </trkpt>
      <trkpt lat="42.78143" lon="0.12848">
        <ele>2187</ele>
        <time>2022-02-24T10:49:07Z</time>
      </trkpt>
      <trkpt lat="42.78146" lon="0.12847">
        <ele>2187</ele>
        <time>2022-02-24T10:49:09Z</time>
      </trkpt>
      <trkpt lat="42.78145" lon="0.12847">
        <ele>2187</ele>
        <time>2022-02-24T10:49:28Z</time>
      </trkpt>
      <trkpt lat="42.78147" lon="0.12842">
        <ele>2187</ele>
        <time>2022-02-24T10:49:41Z</time>
      </trkpt>
      <trkpt lat="42.78161" lon="0.12854">
        <ele>2184</ele>
        <time>2022-02-24T10:49:47Z</time>
      </trkpt>
      <trkpt lat="42.78149" lon="0.12869">
        <ele>2179</ele>
        <time>2022-02-24T10:49:51Z</time>
      </trkpt>
      <trkpt lat="42.78142" lon="0.12875">
        <ele>2177</ele>
        <time>2022-02-24T10:49:53Z</time>
      </trkpt>
      <trkpt lat="42.78141" lon="0.12893">
        <ele>2173</ele>
        <time>2022-02-24T10:49:56Z</time>
      </trkpt>
      <trkpt lat="42.78138" lon="0.12907">
        <ele>2168</ele>
        <time>2022-02-24T10:49:58Z</time>
      </trkpt>
      <trkpt lat="42.78144" lon="0.12917">
        <ele>2164</ele>
        <time>2022-02-24T10:50:00Z</time>
      </trkpt>
      <trkpt lat="42.78147" lon="0.12933">
        <ele>2160</ele>
        <time>2022-02-24T10:50:03Z</time>
      </trkpt>
      <trkpt lat="42.78141" lon="0.12942">
        <ele>2156</ele>
        <time>2022-02-24T10:50:05Z</time>
      </trkpt>
      <trkpt lat="42.78143" lon="0.12954">
        <ele>2153</ele>
        <time>2022-02-24T10:50:07Z</time>
      </trkpt>
      <trkpt lat="42.78143" lon="0.12966">
        <ele>2149</ele>
        <time>2022-02-24T10:50:09Z</time>
      </trkpt>
      <trkpt lat="42.7814" lon="0.12976">
        <ele>2145</ele>
        <time>2022-02-24T10:50:11Z</time>
      </trkpt>
      <trkpt lat="42.7814" lon="0.12995">
        <ele>2139</ele>
        <time>2022-02-24T10:50:14Z</time>
      </trkpt>
      <trkpt lat="42.78136" lon="0.13001">
        <ele>2137</ele>
        <time>2022-02-24T10:50:15Z</time>
      </trkpt>
      <trkpt lat="42.78143" lon="0.13022">
        <ele>2131</ele>
        <time>2022-02-24T10:50:19Z</time>
      </trkpt>
      <trkpt lat="42.78154" lon="0.13029">
        <ele>2128</ele>
        <time>2022-02-24T10:50:21Z</time>
      </trkpt>
      <trkpt lat="42.78163" lon="0.13036">
        <ele>2127</ele>
        <time>2022-02-24T10:50:23Z</time>
      </trkpt>
      <trkpt lat="42.78165" lon="0.13045">
        <ele>2124</ele>
        <time>2022-02-24T10:50:25Z</time>
      </trkpt>
      <trkpt lat="42.78165" lon="0.13057">
        <ele>2120</ele>
        <time>2022-02-24T10:50:28Z</time>
      </trkpt>
      <trkpt lat="42.78172" lon="0.13043">
        <ele>2120</ele>
        <time>2022-02-24T10:50:45Z</time>
      </trkpt>
      <trkpt lat="42.7817" lon="0.1304">
        <ele>2120</ele>
        <time>2022-02-24T10:51:05Z</time>
      </trkpt>
      <trkpt lat="42.78169" lon="0.13043">
        <ele>2120</ele>
        <time>2022-02-24T10:51:25Z</time>
      </trkpt>
      <trkpt lat="42.78172" lon="0.13039">
        <ele>2119</ele>
        <time>2022-02-24T10:51:52Z</time>
      </trkpt>
      <trkpt lat="42.78175" lon="0.1304">
        <ele>2119</ele>
        <time>2022-02-24T10:52:13Z</time>
      </trkpt>
      <trkpt lat="42.78186" lon="0.13055">
        <ele>2116</ele>
        <time>2022-02-24T10:52:18Z</time>
      </trkpt>
      <trkpt lat="42.78192" lon="0.13062">
        <ele>2116</ele>
        <time>2022-02-24T10:52:20Z</time>
      </trkpt>
      <trkpt lat="42.78189" lon="0.13083">
        <ele>2111</ele>
        <time>2022-02-24T10:52:24Z</time>
      </trkpt>
      <trkpt lat="42.78188" lon="0.13087">
        <ele>2109</ele>
        <time>2022-02-24T10:52:25Z</time>
      </trkpt>
      <trkpt lat="42.78188" lon="0.13106">
        <ele>2103</ele>
        <time>2022-02-24T10:52:28Z</time>
      </trkpt>
      <trkpt lat="42.78186" lon="0.13113">
        <ele>2099</ele>
        <time>2022-02-24T10:52:29Z</time>
      </trkpt>
      <trkpt lat="42.78196" lon="0.1313">
        <ele>2094</ele>
        <time>2022-02-24T10:52:32Z</time>
      </trkpt>
      <trkpt lat="42.78197" lon="0.13138">
        <ele>2094</ele>
        <time>2022-02-24T10:52:33Z</time>
      </trkpt>
      <trkpt lat="42.78198" lon="0.13158">
        <ele>2090</ele>
        <time>2022-02-24T10:52:35Z</time>
      </trkpt>
      <trkpt lat="42.78207" lon="0.13174">
        <ele>2086</ele>
        <time>2022-02-24T10:52:37Z</time>
      </trkpt>
      <trkpt lat="42.78225" lon="0.13191">
        <ele>2082</ele>
        <time>2022-02-24T10:52:41Z</time>
      </trkpt>
      <trkpt lat="42.78224" lon="0.13205">
        <ele>2079</ele>
        <time>2022-02-24T10:52:43Z</time>
      </trkpt>
      <trkpt lat="42.78233" lon="0.1322">
        <ele>2076</ele>
        <time>2022-02-24T10:52:46Z</time>
      </trkpt>
      <trkpt lat="42.78242" lon="0.13226">
        <ele>2073</ele>
        <time>2022-02-24T10:52:48Z</time>
      </trkpt>
      <trkpt lat="42.7824" lon="0.13238">
        <ele>2068</ele>
        <time>2022-02-24T10:52:50Z</time>
      </trkpt>
      <trkpt lat="42.78237" lon="0.13247">
        <ele>2066</ele>
        <time>2022-02-24T10:52:51Z</time>
      </trkpt>
      <trkpt lat="42.7824" lon="0.13267">
        <ele>2061</ele>
        <time>2022-02-24T10:52:54Z</time>
      </trkpt>
      <trkpt lat="42.78239" lon="0.13276">
        <ele>2058</ele>
        <time>2022-02-24T10:52:55Z</time>
      </trkpt>
      <trkpt lat="42.78241" lon="0.1329">
        <ele>2056</ele>
        <time>2022-02-24T10:52:57Z</time>
      </trkpt>
      <trkpt lat="42.78251" lon="0.13302">
        <ele>2053</ele>
        <time>2022-02-24T10:52:59Z</time>
      </trkpt>
      <trkpt lat="42.78256" lon="0.13301">
        <ele>2053</ele>
        <time>2022-02-24T10:53:00Z</time>
      </trkpt>
      <trkpt lat="42.78268" lon="0.13309">
        <ele>2049</ele>
        <time>2022-02-24T10:53:03Z</time>
      </trkpt>
      <trkpt lat="42.78259" lon="0.13314">
        <ele>2047</ele>
        <time>2022-02-24T10:53:09Z</time>
      </trkpt>
      <trkpt lat="42.78255" lon="0.13306">
        <ele>2046</ele>
        <time>2022-02-24T10:53:23Z</time>
      </trkpt>
      <trkpt lat="42.78256" lon="0.13305">
        <ele>2046</ele>
        <time>2022-02-24T10:53:31Z</time>
      </trkpt>
      <trkpt lat="42.78255" lon="0.13307">
        <ele>2046</ele>
        <time>2022-02-24T10:53:32Z</time>
      </trkpt>
      <trkpt lat="42.78272" lon="0.13306">
        <ele>2041</ele>
        <time>2022-02-24T10:53:38Z</time>
      </trkpt>
      <trkpt lat="42.78276" lon="0.13306">
        <ele>2041</ele>
        <time>2022-02-24T10:53:39Z</time>
      </trkpt>
      <trkpt lat="42.78292" lon="0.13303">
        <ele>2038</ele>
        <time>2022-02-24T10:53:43Z</time>
      </trkpt>
      <trkpt lat="42.78304" lon="0.13305">
        <ele>2037</ele>
        <time>2022-02-24T10:53:46Z</time>
      </trkpt>
      <trkpt lat="42.78315" lon="0.13309">
        <ele>2034</ele>
        <time>2022-02-24T10:53:52Z</time>
      </trkpt>
      <trkpt lat="42.78333" lon="0.13322">
        <ele>2034</ele>
        <time>2022-02-24T10:54:02Z</time>
      </trkpt>
      <trkpt lat="42.78339" lon="0.1332">
        <ele>2034</ele>
        <time>2022-02-24T10:54:10Z</time>
      </trkpt>
      <trkpt lat="42.78358" lon="0.13347">
        <ele>2030</ele>
        <time>2022-02-24T10:54:18Z</time>
      </trkpt>
      <trkpt lat="42.78383" lon="0.1338">
        <ele>2028</ele>
        <time>2022-02-24T10:54:26Z</time>
      </trkpt>
      <trkpt lat="42.78385" lon="0.13387">
        <ele>2027</ele>
        <time>2022-02-24T10:54:28Z</time>
      </trkpt>
      <trkpt lat="42.78379" lon="0.13401">
        <ele>2023</ele>
        <time>2022-02-24T10:54:30Z</time>
      </trkpt>
      <trkpt lat="42.78363" lon="0.13396">
        <ele>2020</ele>
        <time>2022-02-24T10:54:33Z</time>
      </trkpt>
      <trkpt lat="42.78357" lon="0.13399">
        <ele>2019</ele>
        <time>2022-02-24T10:54:34Z</time>
      </trkpt>
      <trkpt lat="42.7836" lon="0.134">
        <ele>2018</ele>
        <time>2022-02-24T10:54:46Z</time>
      </trkpt>
      <trkpt lat="42.78366" lon="0.13401">
        <ele>2018</ele>
        <time>2022-02-24T10:54:59Z</time>
      </trkpt>
      <trkpt lat="42.78353" lon="0.13414">
        <ele>2014</ele>
        <time>2022-02-24T10:55:03Z</time>
      </trkpt>
      <trkpt lat="42.78353" lon="0.13427">
        <ele>2011</ele>
        <time>2022-02-24T10:55:05Z</time>
      </trkpt>
      <trkpt lat="42.78351" lon="0.13441">
        <ele>2007</ele>
        <time>2022-02-24T10:55:07Z</time>
      </trkpt>
      <trkpt lat="42.78351" lon="0.13456">
        <ele>2004</ele>
        <time>2022-02-24T10:55:09Z</time>
      </trkpt>
      <trkpt lat="42.78349" lon="0.13463">
        <ele>2001</ele>
        <time>2022-02-24T10:55:10Z</time>
      </trkpt>
      <trkpt lat="42.78344" lon="0.13481">
        <ele>1996</ele>
        <time>2022-02-24T10:55:12Z</time>
      </trkpt>
      <trkpt lat="42.78341" lon="0.13491">
        <ele>1992</ele>
        <time>2022-02-24T10:55:13Z</time>
      </trkpt>
      <trkpt lat="42.78337" lon="0.135">
        <ele>1991</ele>
        <time>2022-02-24T10:55:14Z</time>
      </trkpt>
      <trkpt lat="42.78332" lon="0.1351">
        <ele>1989</ele>
        <time>2022-02-24T10:55:15Z</time>
      </trkpt>
      <trkpt lat="42.78323" lon="0.13525">
        <ele>1984</ele>
        <time>2022-02-24T10:55:17Z</time>
      </trkpt>
      <trkpt lat="42.78313" lon="0.13542">
        <ele>1980</ele>
        <time>2022-02-24T10:55:19Z</time>
      </trkpt>
      <trkpt lat="42.78308" lon="0.13552">
        <ele>1978</ele>
        <time>2022-02-24T10:55:20Z</time>
      </trkpt>
      <trkpt lat="42.78298" lon="0.13568">
        <ele>1974</ele>
        <time>2022-02-24T10:55:22Z</time>
      </trkpt>
      <trkpt lat="42.78292" lon="0.13577">
        <ele>1971</ele>
        <time>2022-02-24T10:55:23Z</time>
      </trkpt>
      <trkpt lat="42.78292" lon="0.13594">
        <ele>1968</ele>
        <time>2022-02-24T10:55:24Z</time>
      </trkpt>
      <trkpt lat="42.78288" lon="0.13615">
        <ele>1965</ele>
        <time>2022-02-24T10:55:26Z</time>
      </trkpt>
      <trkpt lat="42.78273" lon="0.13652">
        <ele>1957</ele>
        <time>2022-02-24T10:55:29Z</time>
      </trkpt>
      <trkpt lat="42.78265" lon="0.13663">
        <ele>1953</ele>
        <time>2022-02-24T10:55:30Z</time>
      </trkpt>
      <trkpt lat="42.78253" lon="0.13675">
        <ele>1949</ele>
        <time>2022-02-24T10:55:32Z</time>
      </trkpt>
      <trkpt lat="42.78246" lon="0.13682">
        <ele>1948</ele>
        <time>2022-02-24T10:55:33Z</time>
      </trkpt>
      <trkpt lat="42.78243" lon="0.13687">
        <ele>1946</ele>
        <time>2022-02-24T10:55:34Z</time>
      </trkpt>
      <trkpt lat="42.78241" lon="0.1369">
        <ele>1945</ele>
        <time>2022-02-24T10:55:35Z</time>
      </trkpt>
      <trkpt lat="42.78239" lon="0.13695">
        <ele>1942</ele>
        <time>2022-02-24T10:55:36Z</time>
      </trkpt>
      <trkpt lat="42.78237" lon="0.137">
        <ele>1941</ele>
        <time>2022-02-24T10:55:37Z</time>
      </trkpt>
      <trkpt lat="42.78237" lon="0.13707">
        <ele>1939</ele>
        <time>2022-02-24T10:55:38Z</time>
      </trkpt>
      <trkpt lat="42.7823" lon="0.13723">
        <ele>1935</ele>
        <time>2022-02-24T10:55:40Z</time>
      </trkpt>
      <trkpt lat="42.78223" lon="0.13735">
        <ele>1932</ele>
        <time>2022-02-24T10:55:42Z</time>
      </trkpt>
      <trkpt lat="42.7822" lon="0.13743">
        <ele>1929</ele>
        <time>2022-02-24T10:55:43Z</time>
      </trkpt>
      <trkpt lat="42.78217" lon="0.13751">
        <ele>1927</ele>
        <time>2022-02-24T10:55:44Z</time>
      </trkpt>
      <trkpt lat="42.78214" lon="0.13759">
        <ele>1925</ele>
        <time>2022-02-24T10:55:45Z</time>
      </trkpt>
      <trkpt lat="42.78207" lon="0.13783">
        <ele>1922</ele>
        <time>2022-02-24T10:55:48Z</time>
      </trkpt>
      <trkpt lat="42.78213" lon="0.13806">
        <ele>1919</ele>
        <time>2022-02-24T10:55:50Z</time>
      </trkpt>
      <trkpt lat="42.78215" lon="0.13824">
        <ele>1917</ele>
        <time>2022-02-24T10:55:52Z</time>
      </trkpt>
      <trkpt lat="42.78218" lon="0.13848">
        <ele>1913</ele>
        <time>2022-02-24T10:55:54Z</time>
      </trkpt>
      <trkpt lat="42.78218" lon="0.1388">
        <ele>1911</ele>
        <time>2022-02-24T10:55:57Z</time>
      </trkpt>
      <trkpt lat="42.78225" lon="0.13903">
        <ele>1909</ele>
        <time>2022-02-24T10:55:59Z</time>
      </trkpt>
      <trkpt lat="42.78236" lon="0.13918">
        <ele>1906</ele>
        <time>2022-02-24T10:56:56Z</time>
      </trkpt>
      <trkpt lat="42.78236" lon="0.13918">
        <ele>1906</ele>
        <time>2022-02-24T10:56:56Z</time>
      </trkpt>
      <trkpt lat="42.78236" lon="0.13918">
        <ele>1906</ele>
        <time>2022-02-24T10:56:56Z</time>
      </trkpt>
      <trkpt lat="42.78246" lon="0.1393">
        <ele>1907</ele>
        <time>2022-02-24T10:57:19Z</time>
      </trkpt>
      <trkpt lat="42.78245" lon="0.13951">
        <ele>1905</ele>
        <time>2022-02-24T10:57:24Z</time>
      </trkpt>
      <trkpt lat="42.78249" lon="0.13986">
        <ele>1902</ele>
        <time>2022-02-24T10:57:28Z</time>
      </trkpt>
      <trkpt lat="42.78251" lon="0.14005">
        <ele>1899</ele>
        <time>2022-02-24T10:57:31Z</time>
      </trkpt>
      <trkpt lat="42.78252" lon="0.14019">
        <ele>1898</ele>
        <time>2022-02-24T10:57:33Z</time>
      </trkpt>
      <trkpt lat="42.7825" lon="0.14024">
        <ele>1897</ele>
        <time>2022-02-24T10:57:34Z</time>
      </trkpt>
      <trkpt lat="42.7825" lon="0.14029">
        <ele>1896</ele>
        <time>2022-02-24T10:57:35Z</time>
      </trkpt>
      <trkpt lat="42.78255" lon="0.14056">
        <ele>1894</ele>
        <time>2022-02-24T10:57:38Z</time>
      </trkpt>
      <trkpt lat="42.78257" lon="0.14081">
        <ele>1892</ele>
        <time>2022-02-24T10:57:44Z</time>
      </trkpt>
      <trkpt lat="42.78268" lon="0.14096">
        <ele>1891</ele>
        <time>2022-02-24T10:57:48Z</time>
      </trkpt>
      <trkpt lat="42.78285" lon="0.14116">
        <ele>1889</ele>
        <time>2022-02-24T10:57:53Z</time>
      </trkpt>
      <trkpt lat="42.78296" lon="0.14135">
        <ele>1889</ele>
        <time>2022-02-24T10:57:57Z</time>
      </trkpt>
      <trkpt lat="42.78297" lon="0.14151">
        <ele>1887</ele>
        <time>2022-02-24T10:58:00Z</time>
      </trkpt>
      <trkpt lat="42.78302" lon="0.1417">
        <ele>1889</ele>
        <time>2022-02-24T10:58:12Z</time>
      </trkpt>
      <trkpt lat="42.78295" lon="0.14166">
        <ele>1889</ele>
        <time>2022-02-24T10:58:24Z</time>
      </trkpt>
      <trkpt lat="42.78312" lon="0.14186">
        <ele>1890</ele>
        <time>2022-02-24T10:58:36Z</time>
      </trkpt>
      <trkpt lat="42.78322" lon="0.142">
        <ele>1891</ele>
        <time>2022-02-24T10:58:49Z</time>
      </trkpt>
      <trkpt lat="42.7833" lon="0.14208">
        <ele>1891</ele>
        <time>2022-02-24T10:58:57Z</time>
      </trkpt>
      <trkpt lat="42.78332" lon="0.14215">
        <ele>1892</ele>
        <time>2022-02-24T10:59:02Z</time>
      </trkpt>
      <trkpt lat="42.78342" lon="0.14231">
        <ele>1892</ele>
        <time>2022-02-24T10:59:07Z</time>
      </trkpt>
      <trkpt lat="42.78348" lon="0.14238">
        <ele>1892</ele>
        <time>2022-02-24T10:59:11Z</time>
      </trkpt>
      <trkpt lat="42.78358" lon="0.14248">
        <ele>1891</ele>
        <time>2022-02-24T10:59:23Z</time>
      </trkpt>
      <trkpt lat="42.78362" lon="0.14256">
        <ele>1891</ele>
        <time>2022-02-24T10:59:32Z</time>
      </trkpt>
      <trkpt lat="42.78374" lon="0.14269">
        <ele>1891</ele>
        <time>2022-02-24T10:59:45Z</time>
      </trkpt>
      <trkpt lat="42.78376" lon="0.14271">
        <ele>1891</ele>
        <time>2022-02-24T10:59:47Z</time>
      </trkpt>
      <trkpt lat="42.78379" lon="0.14277">
        <ele>1891</ele>
        <time>2022-02-24T10:59:50Z</time>
      </trkpt>
      <trkpt lat="42.78383" lon="0.14307">
        <ele>1890</ele>
        <time>2022-02-24T11:00:01Z</time>
      </trkpt>
      <trkpt lat="42.78385" lon="0.1435">
        <ele>1888</ele>
        <time>2022-02-24T11:00:11Z</time>
      </trkpt>
      <trkpt lat="42.78388" lon="0.14365">
        <ele>1890</ele>
        <time>2022-02-24T11:00:22Z</time>
      </trkpt>
      <trkpt lat="42.78399" lon="0.14385">
        <ele>1889</ele>
        <time>2022-02-24T11:00:36Z</time>
      </trkpt>
      <trkpt lat="42.78417" lon="0.14415">
        <ele>1887</ele>
        <time>2022-02-24T11:00:49Z</time>
      </trkpt>
      <trkpt lat="42.78429" lon="0.14435">
        <ele>1884</ele>
        <time>2022-02-24T11:01:01Z</time>
      </trkpt>
      <trkpt lat="42.78438" lon="0.14451">
        <ele>1882</ele>
        <time>2022-02-24T11:01:06Z</time>
      </trkpt>
      <trkpt lat="42.7844" lon="0.14455">
        <ele>1881</ele>
        <time>2022-02-24T11:01:07Z</time>
      </trkpt>
      <trkpt lat="42.78446" lon="0.14465">
        <ele>1879</ele>
        <time>2022-02-24T11:01:10Z</time>
      </trkpt>
      <trkpt lat="42.78454" lon="0.14481">
        <ele>1877</ele>
        <time>2022-02-24T11:01:15Z</time>
      </trkpt>
      <trkpt lat="42.78465" lon="0.145">
        <ele>1874</ele>
        <time>2022-02-24T11:01:21Z</time>
      </trkpt>
      <trkpt lat="42.78468" lon="0.14502">
        <ele>1873</ele>
        <time>2022-02-24T11:01:22Z</time>
      </trkpt>
      <trkpt lat="42.78472" lon="0.14493">
        <ele>1872</ele>
        <time>2022-02-24T11:01:34Z</time>
      </trkpt>
      <trkpt lat="42.78473" lon="0.14493">
        <ele>1873</ele>
        <time>2022-02-24T11:01:39Z</time>
      </trkpt>
      <trkpt lat="42.7848" lon="0.14512">
        <ele>1871</ele>
        <time>2022-02-24T11:01:45Z</time>
      </trkpt>
      <trkpt lat="42.78491" lon="0.14543">
        <ele>1867</ele>
        <time>2022-02-24T11:01:49Z</time>
      </trkpt>
      <trkpt lat="42.78496" lon="0.14562">
        <ele>1866</ele>
        <time>2022-02-24T11:01:51Z</time>
      </trkpt>
      <trkpt lat="42.78506" lon="0.14583">
        <ele>1864</ele>
        <time>2022-02-24T11:01:53Z</time>
      </trkpt>
      <trkpt lat="42.78513" lon="0.14605">
        <ele>1861</ele>
        <time>2022-02-24T11:01:55Z</time>
      </trkpt>
      <trkpt lat="42.7852" lon="0.14626">
        <ele>1859</ele>
        <time>2022-02-24T11:01:57Z</time>
      </trkpt>
      <trkpt lat="42.78535" lon="0.14683">
        <ele>1857</ele>
        <time>2022-02-24T11:02:03Z</time>
      </trkpt>
      <trkpt lat="42.78551" lon="0.14757">
        <ele>1853</ele>
        <time>2022-02-24T11:02:11Z</time>
      </trkpt>
      <trkpt lat="42.78555" lon="0.14778">
        <ele>1853</ele>
        <time>2022-02-24T11:02:13Z</time>
      </trkpt>
      <trkpt lat="42.7857" lon="0.14827">
        <ele>1849</ele>
        <time>2022-02-24T11:02:18Z</time>
      </trkpt>
      <trkpt lat="42.78582" lon="0.14869">
        <ele>1846</ele>
        <time>2022-02-24T11:02:22Z</time>
      </trkpt>
      <trkpt lat="42.78593" lon="0.14913">
        <ele>1843</ele>
        <time>2022-02-24T11:02:26Z</time>
      </trkpt>
      <trkpt lat="42.78599" lon="0.14934">
        <ele>1842</ele>
        <time>2022-02-24T11:02:28Z</time>
      </trkpt>
      <trkpt lat="42.78608" lon="0.14972">
        <ele>1840</ele>
        <time>2022-02-24T11:02:32Z</time>
      </trkpt>
      <trkpt lat="42.78613" lon="0.14998">
        <ele>1838</ele>
        <time>2022-02-24T11:02:35Z</time>
      </trkpt>
      <trkpt lat="42.78624" lon="0.15021">
        <ele>1838</ele>
        <time>2022-02-24T11:02:39Z</time>
      </trkpt>
      <trkpt lat="42.78636" lon="0.15047">
        <ele>1837</ele>
        <time>2022-02-24T11:02:49Z</time>
      </trkpt>
      <trkpt lat="42.78636" lon="0.15042">
        <ele>1837</ele>
        <time>2022-02-24T11:02:59Z</time>
      </trkpt>
      <trkpt lat="42.78641" lon="0.15046">
        <ele>1837</ele>
        <time>2022-02-24T11:03:16Z</time>
      </trkpt>
      <trkpt lat="42.78641" lon="0.15046">
        <ele>1837</ele>
        <time>2022-02-24T11:03:16Z</time>
      </trkpt>
      <trkpt lat="42.78641" lon="0.15046">
        <ele>1837</ele>
        <time>2022-02-24T11:03:16Z</time>
      </trkpt>
      <trkpt lat="42.78641" lon="0.15046">
        <ele>1837</ele>
        <time>2022-02-24T11:03:16Z</time>
      </trkpt>
      <trkpt lat="42.78641" lon="0.15046">
        <ele>1837</ele>
        <time>2022-02-24T11:03:16Z</time>
      </trkpt>
      <trkpt lat="42.78642" lon="0.15045">
        <ele>1820.9</ele>
      </trkpt>
      <trkpt lat="42.78642" lon="0.15051">
        <ele>1820.9</ele>
      </trkpt>
      <trkpt lat="42.7864" lon="0.15052">
        <ele>1834</ele>
        <time>2022-02-24T11:06:31Z</time>
      </trkpt>
      <trkpt lat="42.78645" lon="0.15079">
        <ele>1834</ele>
        <time>2022-02-24T11:06:38Z</time>
      </trkpt>
      <trkpt lat="42.78652" lon="0.15112">
        <ele>1834</ele>
        <time>2022-02-24T11:06:49Z</time>
      </trkpt>
      <trkpt lat="42.78651" lon="0.15121">
        <ele>1834</ele>
        <time>2022-02-24T11:06:55Z</time>
      </trkpt>
      <trkpt lat="42.78651" lon="0.1513">
        <ele>1834</ele>
        <time>2022-02-24T11:07:00Z</time>
      </trkpt>
      <trkpt lat="42.78651" lon="0.15134">
        <ele>1835</ele>
        <time>2022-02-24T11:07:02Z</time>
      </trkpt>
      <trkpt lat="42.78652" lon="0.15145">
        <ele>1835</ele>
        <time>2022-02-24T11:07:07Z</time>
      </trkpt>
      <trkpt lat="42.7865" lon="0.15155">
        <ele>1836</ele>
        <time>2022-02-24T11:07:13Z</time>
      </trkpt>
      <trkpt lat="42.78651" lon="0.15174">
        <ele>1838</ele>
        <time>2022-02-24T11:07:24Z</time>
      </trkpt>
      <trkpt lat="42.78649" lon="0.152">
        <ele>1838</ele>
        <time>2022-02-24T11:07:40Z</time>
      </trkpt>
      <trkpt lat="42.78647" lon="0.15227">
        <ele>1841</ele>
        <time>2022-02-24T11:07:57Z</time>
      </trkpt>
      <trkpt lat="42.78647" lon="0.15233">
        <ele>1842</ele>
        <time>2022-02-24T11:08:00Z</time>
      </trkpt>
      <trkpt lat="42.78647" lon="0.15251">
        <ele>1843</ele>
        <time>2022-02-24T11:08:11Z</time>
      </trkpt>
      <trkpt lat="42.78646" lon="0.15255">
        <ele>1845</ele>
        <time>2022-02-24T11:08:13Z</time>
      </trkpt>
      <trkpt lat="42.78653" lon="0.15294">
        <ele>1846</ele>
        <time>2022-02-24T11:08:32Z</time>
      </trkpt>
      <trkpt lat="42.78655" lon="0.15305">
        <ele>1847</ele>
        <time>2022-02-24T11:08:36Z</time>
      </trkpt>
      <trkpt lat="42.78657" lon="0.15323">
        <ele>1847</ele>
        <time>2022-02-24T11:08:46Z</time>
      </trkpt>
      <trkpt lat="42.78661" lon="0.15331">
        <ele>1849</ele>
        <time>2022-02-24T11:08:59Z</time>
      </trkpt>
      <trkpt lat="42.78662" lon="0.15333">
        <ele>1849</ele>
        <time>2022-02-24T11:09:06Z</time>
      </trkpt>
      <trkpt lat="42.78666" lon="0.15364">
        <ele>1848</ele>
        <time>2022-02-24T11:09:19Z</time>
      </trkpt>
      <trkpt lat="42.78664" lon="0.15368">
        <ele>1847</ele>
        <time>2022-02-24T11:09:30Z</time>
      </trkpt>
      <trkpt lat="42.78665" lon="0.15362">
        <ele>1848</ele>
        <time>2022-02-24T11:09:51Z</time>
      </trkpt>
      <trkpt lat="42.78665" lon="0.15363">
        <ele>1848</ele>
        <time>2022-02-24T11:10:00Z</time>
      </trkpt>
      <trkpt lat="42.7867" lon="0.15366">
        <ele>1847</ele>
        <time>2022-02-24T11:10:19Z</time>
      </trkpt>
      <trkpt lat="42.78672" lon="0.15363">
        <ele>1847</ele>
        <time>2022-02-24T11:10:43Z</time>
      </trkpt>
      <trkpt lat="42.78671" lon="0.15364">
        <ele>1847</ele>
        <time>2022-02-24T11:10:46Z</time>
      </trkpt>
      <trkpt lat="42.78672" lon="0.15367">
        <ele>1847</ele>
        <time>2022-02-24T11:10:48Z</time>
      </trkpt>
      <trkpt lat="42.78675" lon="0.15391">
        <ele>1848</ele>
        <time>2022-02-24T11:11:02Z</time>
      </trkpt>
      <trkpt lat="42.78675" lon="0.15392">
        <ele>1847</ele>
        <time>2022-02-24T11:11:03Z</time>
      </trkpt>
      <trkpt lat="42.78675" lon="0.15408">
        <ele>1846</ele>
        <time>2022-02-24T11:11:16Z</time>
      </trkpt>
      <trkpt lat="42.78674" lon="0.15408">
        <ele>1846</ele>
        <time>2022-02-24T11:11:17Z</time>
      </trkpt>
      <trkpt lat="42.78672" lon="0.15411">
        <ele>1847</ele>
        <time>2022-02-24T11:11:21Z</time>
      </trkpt>
      <trkpt lat="42.78673" lon="0.15415">
        <ele>1847</ele>
        <time>2022-02-24T11:11:36Z</time>
      </trkpt>
      <trkpt lat="42.78671" lon="0.15415">
        <ele>1846</ele>
        <time>2022-02-24T11:11:58Z</time>
      </trkpt>
      <trkpt lat="42.78673" lon="0.15413">
        <ele>1845</ele>
        <time>2022-02-24T11:12:14Z</time>
      </trkpt>
      <trkpt lat="42.7867" lon="0.15415">
        <ele>1846</ele>
        <time>2022-02-24T11:12:39Z</time>
      </trkpt>
    </trkseg>
  </trk>
</gpx>